<?xml version="1.0" encoding="UTF-8" standalone="no" ?>
<gpx xmlns="http://www.topografix.com/GPX/1/1" xmlns:xsi="http://www.w3.org/2001/XMLSchema-instance" xsi:schemaLocation="http://www.topografix.com/GPX/1/1 http://www.topografix.com/GPX/1/1/gpx.xsd" version="1.1" creator="VisuGPX - https://www.visugpx.com">
  <metadata>
    <name>pointe de la GALOPPAZ</name>
    <desc><![CDATA[pointe de la GALLOPAZ en boucle]]></desc>
  </metadata>
  <trk>
    <name><![CDATA[5 sept. 2018 à 10:25:51]]></name>
    <cmt><![CDATA[5 sept. 2018 à 10:25:51]]></cmt>
    <trkseg>
      <trkpt lat="45.58072" lon="6.062">
        <ele>1029</ele>
        <time>2018-09-05T08:25:51Z</time>
      </trkpt>
      <trkpt lat="45.58076" lon="6.06182">
        <ele>1029</ele>
        <time>2018-09-05T08:25:52Z</time>
      </trkpt>
      <trkpt lat="45.58075" lon="6.06232">
        <ele>1029</ele>
        <time>2018-09-05T08:25:59Z</time>
      </trkpt>
      <trkpt lat="45.5808" lon="6.06211">
        <ele>1029</ele>
        <time>2018-09-05T08:26:03Z</time>
      </trkpt>
      <trkpt lat="45.58081" lon="6.06205">
        <ele>1029</ele>
        <time>2018-09-05T08:26:05Z</time>
      </trkpt>
      <trkpt lat="45.58085" lon="6.062">
        <ele>1025</ele>
        <time>2018-09-05T08:26:09Z</time>
      </trkpt>
      <trkpt lat="45.58087" lon="6.06195">
        <ele>1028</ele>
        <time>2018-09-05T08:26:14Z</time>
      </trkpt>
      <trkpt lat="45.58092" lon="6.06207">
        <ele>1025</ele>
        <time>2018-09-05T08:27:34Z</time>
      </trkpt>
      <trkpt lat="45.58112" lon="6.06232">
        <ele>1026</ele>
        <time>2018-09-05T08:28:06Z</time>
      </trkpt>
      <trkpt lat="45.5812" lon="6.06238">
        <ele>1024</ele>
        <time>2018-09-05T08:28:14Z</time>
      </trkpt>
      <trkpt lat="45.58127" lon="6.06218">
        <ele>1023</ele>
        <time>2018-09-05T08:28:43Z</time>
      </trkpt>
      <trkpt lat="45.58135" lon="6.0623">
        <ele>1022</ele>
        <time>2018-09-05T08:28:57Z</time>
      </trkpt>
      <trkpt lat="45.58137" lon="6.06245">
        <ele>1021</ele>
        <time>2018-09-05T08:29:07Z</time>
      </trkpt>
      <trkpt lat="45.58143" lon="6.06255">
        <ele>1021</ele>
        <time>2018-09-05T08:29:12Z</time>
      </trkpt>
      <trkpt lat="45.5815" lon="6.06265">
        <ele>1020</ele>
        <time>2018-09-05T08:29:17Z</time>
      </trkpt>
      <trkpt lat="45.58159" lon="6.06269">
        <ele>1020</ele>
        <time>2018-09-05T08:29:23Z</time>
      </trkpt>
      <trkpt lat="45.58187" lon="6.06273">
        <ele>1018</ele>
        <time>2018-09-05T08:29:44Z</time>
      </trkpt>
      <trkpt lat="45.58197" lon="6.06292">
        <ele>1018</ele>
        <time>2018-09-05T08:30:02Z</time>
      </trkpt>
      <trkpt lat="45.58199" lon="6.06303">
        <ele>1017</ele>
        <time>2018-09-05T08:30:12Z</time>
      </trkpt>
      <trkpt lat="45.58184" lon="6.0631">
        <ele>1019</ele>
        <time>2018-09-05T08:30:29Z</time>
      </trkpt>
      <trkpt lat="45.58175" lon="6.0631">
        <ele>1021</ele>
        <time>2018-09-05T08:30:38Z</time>
      </trkpt>
      <trkpt lat="45.58165" lon="6.06302">
        <ele>1023</ele>
        <time>2018-09-05T08:30:48Z</time>
      </trkpt>
      <trkpt lat="45.58156" lon="6.06301">
        <ele>1023</ele>
        <time>2018-09-05T08:30:57Z</time>
      </trkpt>
      <trkpt lat="45.58146" lon="6.063">
        <ele>1025</ele>
        <time>2018-09-05T08:31:06Z</time>
      </trkpt>
      <trkpt lat="45.58135" lon="6.06298">
        <ele>1026</ele>
        <time>2018-09-05T08:31:16Z</time>
      </trkpt>
      <trkpt lat="45.58126" lon="6.06295">
        <ele>1028</ele>
        <time>2018-09-05T08:31:25Z</time>
      </trkpt>
      <trkpt lat="45.58105" lon="6.06315">
        <ele>1031</ele>
        <time>2018-09-05T08:31:52Z</time>
      </trkpt>
      <trkpt lat="45.58099" lon="6.06327">
        <ele>1030</ele>
        <time>2018-09-05T08:32:01Z</time>
      </trkpt>
      <trkpt lat="45.58093" lon="6.06336">
        <ele>1032</ele>
        <time>2018-09-05T08:32:09Z</time>
      </trkpt>
      <trkpt lat="45.58079" lon="6.06349">
        <ele>1035</ele>
        <time>2018-09-05T08:32:28Z</time>
      </trkpt>
      <trkpt lat="45.5807" lon="6.06349">
        <ele>1035</ele>
        <time>2018-09-05T08:32:34Z</time>
      </trkpt>
      <trkpt lat="45.58061" lon="6.0636">
        <ele>1037</ele>
        <time>2018-09-05T08:32:47Z</time>
      </trkpt>
      <trkpt lat="45.58055" lon="6.06371">
        <ele>1038</ele>
        <time>2018-09-05T08:33:00Z</time>
      </trkpt>
      <trkpt lat="45.58046" lon="6.06378">
        <ele>1039</ele>
        <time>2018-09-05T08:33:10Z</time>
      </trkpt>
      <trkpt lat="45.58037" lon="6.06379">
        <ele>1040</ele>
        <time>2018-09-05T08:33:19Z</time>
      </trkpt>
      <trkpt lat="45.58018" lon="6.06388">
        <ele>1043</ele>
        <time>2018-09-05T08:33:38Z</time>
      </trkpt>
      <trkpt lat="45.58014" lon="6.064">
        <ele>1044</ele>
        <time>2018-09-05T08:33:45Z</time>
      </trkpt>
      <trkpt lat="45.58017" lon="6.06413">
        <ele>1045</ele>
        <time>2018-09-05T08:33:53Z</time>
      </trkpt>
      <trkpt lat="45.58022" lon="6.06427">
        <ele>1046</ele>
        <time>2018-09-05T08:34:02Z</time>
      </trkpt>
      <trkpt lat="45.58022" lon="6.06456">
        <ele>1047</ele>
        <time>2018-09-05T08:34:18Z</time>
      </trkpt>
      <trkpt lat="45.58022" lon="6.06469">
        <ele>1049</ele>
        <time>2018-09-05T08:34:26Z</time>
      </trkpt>
      <trkpt lat="45.58029" lon="6.06479">
        <ele>1050</ele>
        <time>2018-09-05T08:34:34Z</time>
      </trkpt>
      <trkpt lat="45.58033" lon="6.06493">
        <ele>1052</ele>
        <time>2018-09-05T08:34:46Z</time>
      </trkpt>
      <trkpt lat="45.58032" lon="6.06507">
        <ele>1054</ele>
        <time>2018-09-05T08:34:55Z</time>
      </trkpt>
      <trkpt lat="45.58028" lon="6.06538">
        <ele>1059</ele>
        <time>2018-09-05T08:35:26Z</time>
      </trkpt>
      <trkpt lat="45.58035" lon="6.06546">
        <ele>1061</ele>
        <time>2018-09-05T08:35:49Z</time>
      </trkpt>
      <trkpt lat="45.58045" lon="6.06544">
        <ele>1061</ele>
        <time>2018-09-05T08:35:59Z</time>
      </trkpt>
      <trkpt lat="45.58063" lon="6.06552">
        <ele>1064</ele>
        <time>2018-09-05T08:36:18Z</time>
      </trkpt>
      <trkpt lat="45.58093" lon="6.06578">
        <ele>1068</ele>
        <time>2018-09-05T08:36:51Z</time>
      </trkpt>
      <trkpt lat="45.58098" lon="6.06582">
        <ele>1069</ele>
        <time>2018-09-05T08:36:56Z</time>
      </trkpt>
      <trkpt lat="45.58102" lon="6.06586">
        <ele>1070</ele>
        <time>2018-09-05T08:37:01Z</time>
      </trkpt>
      <trkpt lat="45.58107" lon="6.06588">
        <ele>1069</ele>
        <time>2018-09-05T08:37:05Z</time>
      </trkpt>
      <trkpt lat="45.58117" lon="6.0659">
        <ele>1071</ele>
        <time>2018-09-05T08:37:14Z</time>
      </trkpt>
      <trkpt lat="45.58139" lon="6.06588">
        <ele>1074</ele>
        <time>2018-09-05T08:37:35Z</time>
      </trkpt>
      <trkpt lat="45.58146" lon="6.06592">
        <ele>1070</ele>
        <time>2018-09-05T08:37:44Z</time>
      </trkpt>
      <trkpt lat="45.58162" lon="6.06592">
        <ele>1077</ele>
        <time>2018-09-05T08:38:03Z</time>
      </trkpt>
      <trkpt lat="45.5817" lon="6.06597">
        <ele>1076</ele>
        <time>2018-09-05T08:38:10Z</time>
      </trkpt>
      <trkpt lat="45.58181" lon="6.06594">
        <ele>1082</ele>
        <time>2018-09-05T08:38:19Z</time>
      </trkpt>
      <trkpt lat="45.58199" lon="6.0659">
        <ele>1078</ele>
        <time>2018-09-05T08:38:32Z</time>
      </trkpt>
      <trkpt lat="45.58207" lon="6.06595">
        <ele>1079</ele>
        <time>2018-09-05T08:38:40Z</time>
      </trkpt>
      <trkpt lat="45.58218" lon="6.06592">
        <ele>1087</ele>
        <time>2018-09-05T08:38:49Z</time>
      </trkpt>
      <trkpt lat="45.58221" lon="6.06589">
        <ele>1091</ele>
        <time>2018-09-05T08:38:52Z</time>
      </trkpt>
      <trkpt lat="45.58228" lon="6.0658">
        <ele>1085</ele>
        <time>2018-09-05T08:39:00Z</time>
      </trkpt>
      <trkpt lat="45.58233" lon="6.06579">
        <ele>1084</ele>
        <time>2018-09-05T08:39:04Z</time>
      </trkpt>
      <trkpt lat="45.58244" lon="6.0658">
        <ele>1084</ele>
        <time>2018-09-05T08:39:12Z</time>
      </trkpt>
      <trkpt lat="45.5825" lon="6.0658">
        <ele>1084</ele>
        <time>2018-09-05T08:39:16Z</time>
      </trkpt>
      <trkpt lat="45.58254" lon="6.06581">
        <ele>1084</ele>
        <time>2018-09-05T08:39:20Z</time>
      </trkpt>
      <trkpt lat="45.58259" lon="6.06584">
        <ele>1084</ele>
        <time>2018-09-05T08:39:24Z</time>
      </trkpt>
      <trkpt lat="45.58269" lon="6.06588">
        <ele>1084</ele>
        <time>2018-09-05T08:39:33Z</time>
      </trkpt>
      <trkpt lat="45.5828" lon="6.06596">
        <ele>1086</ele>
        <time>2018-09-05T08:39:46Z</time>
      </trkpt>
      <trkpt lat="45.58304" lon="6.06608">
        <ele>1090</ele>
        <time>2018-09-05T08:40:14Z</time>
      </trkpt>
      <trkpt lat="45.5832" lon="6.06614">
        <ele>1091</ele>
        <time>2018-09-05T08:40:26Z</time>
      </trkpt>
      <trkpt lat="45.58326" lon="6.06615">
        <ele>1090</ele>
        <time>2018-09-05T08:40:30Z</time>
      </trkpt>
      <trkpt lat="45.58335" lon="6.06616">
        <ele>1090</ele>
        <time>2018-09-05T08:40:38Z</time>
      </trkpt>
      <trkpt lat="45.58345" lon="6.06621">
        <ele>1091</ele>
        <time>2018-09-05T08:40:46Z</time>
      </trkpt>
      <trkpt lat="45.58354" lon="6.06627">
        <ele>1091</ele>
        <time>2018-09-05T08:40:54Z</time>
      </trkpt>
      <trkpt lat="45.58364" lon="6.06631">
        <ele>1093</ele>
        <time>2018-09-05T08:41:03Z</time>
      </trkpt>
      <trkpt lat="45.5838" lon="6.06627">
        <ele>1094</ele>
        <time>2018-09-05T08:41:15Z</time>
      </trkpt>
      <trkpt lat="45.58384" lon="6.06626">
        <ele>1094</ele>
        <time>2018-09-05T08:41:19Z</time>
      </trkpt>
      <trkpt lat="45.58389" lon="6.06624">
        <ele>1094</ele>
        <time>2018-09-05T08:41:23Z</time>
      </trkpt>
      <trkpt lat="45.58403" lon="6.06618">
        <ele>1097</ele>
        <time>2018-09-05T08:41:41Z</time>
      </trkpt>
      <trkpt lat="45.5841" lon="6.06622">
        <ele>1099</ele>
        <time>2018-09-05T08:41:53Z</time>
      </trkpt>
      <trkpt lat="45.58424" lon="6.06638">
        <ele>1105</ele>
        <time>2018-09-05T08:42:29Z</time>
      </trkpt>
      <trkpt lat="45.58431" lon="6.0665">
        <ele>1107</ele>
        <time>2018-09-05T08:42:40Z</time>
      </trkpt>
      <trkpt lat="45.58436" lon="6.06651">
        <ele>1107</ele>
        <time>2018-09-05T08:42:45Z</time>
      </trkpt>
      <trkpt lat="45.58439" lon="6.06659">
        <ele>1109</ele>
        <time>2018-09-05T08:42:52Z</time>
      </trkpt>
      <trkpt lat="45.58446" lon="6.06664">
        <ele>1110</ele>
        <time>2018-09-05T08:43:01Z</time>
      </trkpt>
      <trkpt lat="45.58452" lon="6.06674">
        <ele>1109</ele>
        <time>2018-09-05T08:43:12Z</time>
      </trkpt>
      <trkpt lat="45.58457" lon="6.06686">
        <ele>1113</ele>
        <time>2018-09-05T08:43:28Z</time>
      </trkpt>
      <trkpt lat="45.58463" lon="6.06702">
        <ele>1114</ele>
        <time>2018-09-05T08:43:47Z</time>
      </trkpt>
      <trkpt lat="45.58471" lon="6.0672">
        <ele>1117</ele>
        <time>2018-09-05T08:44:06Z</time>
      </trkpt>
      <trkpt lat="45.58463" lon="6.0673">
        <ele>1121</ele>
        <time>2018-09-05T08:44:29Z</time>
      </trkpt>
      <trkpt lat="45.58455" lon="6.06743">
        <ele>1126</ele>
        <time>2018-09-05T08:44:54Z</time>
      </trkpt>
      <trkpt lat="45.58456" lon="6.06778">
        <ele>1133</ele>
        <time>2018-09-05T08:45:36Z</time>
      </trkpt>
      <trkpt lat="45.58468" lon="6.068">
        <ele>1140</ele>
        <time>2018-09-05T08:46:03Z</time>
      </trkpt>
      <trkpt lat="45.58472" lon="6.06808">
        <ele>1140</ele>
        <time>2018-09-05T08:46:15Z</time>
      </trkpt>
      <trkpt lat="45.58472" lon="6.06817">
        <ele>1141</ele>
        <time>2018-09-05T08:46:27Z</time>
      </trkpt>
      <trkpt lat="45.58468" lon="6.06823">
        <ele>1144</ele>
        <time>2018-09-05T08:46:39Z</time>
      </trkpt>
      <trkpt lat="45.58468" lon="6.06834">
        <ele>1147</ele>
        <time>2018-09-05T08:46:57Z</time>
      </trkpt>
      <trkpt lat="45.58459" lon="6.06857">
        <ele>1152</ele>
        <time>2018-09-05T08:47:31Z</time>
      </trkpt>
      <trkpt lat="45.5846" lon="6.06874">
        <ele>1155</ele>
        <time>2018-09-05T08:47:45Z</time>
      </trkpt>
      <trkpt lat="45.58459" lon="6.0689">
        <ele>1153</ele>
        <time>2018-09-05T08:47:59Z</time>
      </trkpt>
      <trkpt lat="45.58454" lon="6.069">
        <ele>1158</ele>
        <time>2018-09-05T08:48:20Z</time>
      </trkpt>
      <trkpt lat="45.58462" lon="6.06921">
        <ele>1164</ele>
        <time>2018-09-05T08:48:50Z</time>
      </trkpt>
      <trkpt lat="45.58469" lon="6.06929">
        <ele>1164</ele>
        <time>2018-09-05T08:48:55Z</time>
      </trkpt>
      <trkpt lat="45.58465" lon="6.06941">
        <ele>1170</ele>
        <time>2018-09-05T08:49:34Z</time>
      </trkpt>
      <trkpt lat="45.58454" lon="6.06945">
        <ele>1172</ele>
        <time>2018-09-05T08:49:53Z</time>
      </trkpt>
      <trkpt lat="45.58446" lon="6.06939">
        <ele>1175</ele>
        <time>2018-09-05T08:50:03Z</time>
      </trkpt>
      <trkpt lat="45.58442" lon="6.06939">
        <ele>1176</ele>
        <time>2018-09-05T08:50:08Z</time>
      </trkpt>
      <trkpt lat="45.58435" lon="6.06938">
        <ele>1175</ele>
        <time>2018-09-05T08:50:15Z</time>
      </trkpt>
      <trkpt lat="45.58429" lon="6.06939">
        <ele>1175</ele>
        <time>2018-09-05T08:50:23Z</time>
      </trkpt>
      <trkpt lat="45.58425" lon="6.06943">
        <ele>1174</ele>
        <time>2018-09-05T08:50:29Z</time>
      </trkpt>
      <trkpt lat="45.58416" lon="6.06944">
        <ele>1173</ele>
        <time>2018-09-05T08:50:41Z</time>
      </trkpt>
      <trkpt lat="45.58412" lon="6.06946">
        <ele>1172</ele>
        <time>2018-09-05T08:50:45Z</time>
      </trkpt>
      <trkpt lat="45.58409" lon="6.06951">
        <ele>1172</ele>
        <time>2018-09-05T08:50:49Z</time>
      </trkpt>
      <trkpt lat="45.58402" lon="6.06949">
        <ele>1171</ele>
        <time>2018-09-05T08:50:56Z</time>
      </trkpt>
      <trkpt lat="45.58396" lon="6.0695">
        <ele>1170</ele>
        <time>2018-09-05T08:51:04Z</time>
      </trkpt>
      <trkpt lat="45.58378" lon="6.06946">
        <ele>1168</ele>
        <time>2018-09-05T08:51:26Z</time>
      </trkpt>
      <trkpt lat="45.58373" lon="6.06945">
        <ele>1168</ele>
        <time>2018-09-05T08:51:31Z</time>
      </trkpt>
      <trkpt lat="45.58368" lon="6.06943">
        <ele>1168</ele>
        <time>2018-09-05T08:51:35Z</time>
      </trkpt>
      <trkpt lat="45.58364" lon="6.06944">
        <ele>1168</ele>
        <time>2018-09-05T08:51:40Z</time>
      </trkpt>
      <trkpt lat="45.58359" lon="6.0695">
        <ele>1169</ele>
        <time>2018-09-05T08:51:48Z</time>
      </trkpt>
      <trkpt lat="45.58347" lon="6.06946">
        <ele>1170</ele>
        <time>2018-09-05T08:52:06Z</time>
      </trkpt>
      <trkpt lat="45.58338" lon="6.0694">
        <ele>1168</ele>
        <time>2018-09-05T08:52:16Z</time>
      </trkpt>
      <trkpt lat="45.58327" lon="6.06934">
        <ele>1170</ele>
        <time>2018-09-05T08:52:31Z</time>
      </trkpt>
      <trkpt lat="45.58315" lon="6.06935">
        <ele>1171</ele>
        <time>2018-09-05T08:52:54Z</time>
      </trkpt>
      <trkpt lat="45.583" lon="6.06931">
        <ele>1174</ele>
        <time>2018-09-05T08:53:15Z</time>
      </trkpt>
      <trkpt lat="45.58294" lon="6.06945">
        <ele>1177</ele>
        <time>2018-09-05T08:53:33Z</time>
      </trkpt>
      <trkpt lat="45.5828" lon="6.06947">
        <ele>1181</ele>
        <time>2018-09-05T08:53:56Z</time>
      </trkpt>
      <trkpt lat="45.58271" lon="6.06944">
        <ele>1185</ele>
        <time>2018-09-05T08:54:14Z</time>
      </trkpt>
      <trkpt lat="45.58271" lon="6.06959">
        <ele>1188</ele>
        <time>2018-09-05T08:54:28Z</time>
      </trkpt>
      <trkpt lat="45.58263" lon="6.06972">
        <ele>1191</ele>
        <time>2018-09-05T08:54:50Z</time>
      </trkpt>
      <trkpt lat="45.58256" lon="6.06979">
        <ele>1192</ele>
        <time>2018-09-05T08:55:07Z</time>
      </trkpt>
      <trkpt lat="45.58256" lon="6.06998">
        <ele>1201</ele>
        <time>2018-09-05T08:55:50Z</time>
      </trkpt>
      <trkpt lat="45.58267" lon="6.07009">
        <ele>1207</ele>
        <time>2018-09-05T08:56:23Z</time>
      </trkpt>
      <trkpt lat="45.58276" lon="6.07009">
        <ele>1213</ele>
        <time>2018-09-05T08:56:59Z</time>
      </trkpt>
      <trkpt lat="45.58278" lon="6.07009">
        <ele>1228</ele>
        <time>2018-09-05T08:58:30Z</time>
      </trkpt>
      <trkpt lat="45.58284" lon="6.07024">
        <ele>1231</ele>
        <time>2018-09-05T08:58:45Z</time>
      </trkpt>
      <trkpt lat="45.58296" lon="6.07033">
        <ele>1235</ele>
        <time>2018-09-05T08:59:18Z</time>
      </trkpt>
      <trkpt lat="45.58305" lon="6.07038">
        <ele>1239</ele>
        <time>2018-09-05T08:59:39Z</time>
      </trkpt>
      <trkpt lat="45.58314" lon="6.07043">
        <ele>1239</ele>
        <time>2018-09-05T08:59:52Z</time>
      </trkpt>
      <trkpt lat="45.58309" lon="6.07048">
        <ele>1249</ele>
        <time>2018-09-05T09:00:37Z</time>
      </trkpt>
      <trkpt lat="45.58318" lon="6.0707">
        <ele>1255</ele>
        <time>2018-09-05T09:01:18Z</time>
      </trkpt>
      <trkpt lat="45.58323" lon="6.07072">
        <ele>1257</ele>
        <time>2018-09-05T09:01:32Z</time>
      </trkpt>
      <trkpt lat="45.58322" lon="6.07077">
        <ele>1263</ele>
        <time>2018-09-05T09:02:20Z</time>
      </trkpt>
      <trkpt lat="45.58316" lon="6.07073">
        <ele>1265</ele>
        <time>2018-09-05T09:02:28Z</time>
      </trkpt>
      <trkpt lat="45.58313" lon="6.0708">
        <ele>1267</ele>
        <time>2018-09-05T09:02:41Z</time>
      </trkpt>
      <trkpt lat="45.58307" lon="6.07074">
        <ele>1269</ele>
        <time>2018-09-05T09:02:53Z</time>
      </trkpt>
      <trkpt lat="45.58297" lon="6.07073">
        <ele>1270</ele>
        <time>2018-09-05T09:03:11Z</time>
      </trkpt>
      <trkpt lat="45.58297" lon="6.07082">
        <ele>1272</ele>
        <time>2018-09-05T09:03:23Z</time>
      </trkpt>
      <trkpt lat="45.58285" lon="6.07086">
        <ele>1273</ele>
        <time>2018-09-05T09:04:26Z</time>
      </trkpt>
      <trkpt lat="45.58275" lon="6.07086">
        <ele>1276</ele>
        <time>2018-09-05T09:04:40Z</time>
      </trkpt>
      <trkpt lat="45.58265" lon="6.07092">
        <ele>1282</ele>
        <time>2018-09-05T09:05:16Z</time>
      </trkpt>
      <trkpt lat="45.58255" lon="6.07093">
        <ele>1286</ele>
        <time>2018-09-05T09:05:40Z</time>
      </trkpt>
      <trkpt lat="45.58249" lon="6.07106">
        <ele>1289</ele>
        <time>2018-09-05T09:05:59Z</time>
      </trkpt>
      <trkpt lat="45.58244" lon="6.07116">
        <ele>1295</ele>
        <time>2018-09-05T09:06:32Z</time>
      </trkpt>
      <trkpt lat="45.58248" lon="6.0713">
        <ele>1298</ele>
        <time>2018-09-05T09:07:04Z</time>
      </trkpt>
      <trkpt lat="45.58257" lon="6.07135">
        <ele>1306</ele>
        <time>2018-09-05T09:07:28Z</time>
      </trkpt>
      <trkpt lat="45.58257" lon="6.07148">
        <ele>1307</ele>
        <time>2018-09-05T09:07:53Z</time>
      </trkpt>
      <trkpt lat="45.58267" lon="6.07159">
        <ele>1311</ele>
        <time>2018-09-05T09:08:24Z</time>
      </trkpt>
      <trkpt lat="45.58277" lon="6.07164">
        <ele>1315</ele>
        <time>2018-09-05T09:08:57Z</time>
      </trkpt>
      <trkpt lat="45.58285" lon="6.07169">
        <ele>1319</ele>
        <time>2018-09-05T09:09:23Z</time>
      </trkpt>
      <trkpt lat="45.58288" lon="6.07174">
        <ele>1321</ele>
        <time>2018-09-05T09:09:41Z</time>
      </trkpt>
      <trkpt lat="45.5828" lon="6.07182">
        <ele>1325</ele>
        <time>2018-09-05T09:10:11Z</time>
      </trkpt>
      <trkpt lat="45.58285" lon="6.07188">
        <ele>1327</ele>
        <time>2018-09-05T09:10:23Z</time>
      </trkpt>
      <trkpt lat="45.58285" lon="6.07194">
        <ele>1330</ele>
        <time>2018-09-05T09:10:42Z</time>
      </trkpt>
      <trkpt lat="45.58278" lon="6.07183">
        <ele>1331</ele>
        <time>2018-09-05T09:10:50Z</time>
      </trkpt>
      <trkpt lat="45.58271" lon="6.07191">
        <ele>1335</ele>
        <time>2018-09-05T09:11:18Z</time>
      </trkpt>
      <trkpt lat="45.58261" lon="6.07194">
        <ele>1339</ele>
        <time>2018-09-05T09:11:48Z</time>
      </trkpt>
      <trkpt lat="45.58266" lon="6.07212">
        <ele>1344</ele>
        <time>2018-09-05T09:12:26Z</time>
      </trkpt>
      <trkpt lat="45.58268" lon="6.07224">
        <ele>1346</ele>
        <time>2018-09-05T09:12:40Z</time>
      </trkpt>
      <trkpt lat="45.58261" lon="6.0723">
        <ele>1351</ele>
        <time>2018-09-05T09:13:10Z</time>
      </trkpt>
      <trkpt lat="45.58253" lon="6.07239">
        <ele>1354</ele>
        <time>2018-09-05T09:13:34Z</time>
      </trkpt>
      <trkpt lat="45.58244" lon="6.07235">
        <ele>1358</ele>
        <time>2018-09-05T09:13:54Z</time>
      </trkpt>
      <trkpt lat="45.58244" lon="6.07243">
        <ele>1360</ele>
        <time>2018-09-05T09:14:13Z</time>
      </trkpt>
      <trkpt lat="45.58248" lon="6.07247">
        <ele>1360</ele>
        <time>2018-09-05T09:14:19Z</time>
      </trkpt>
      <trkpt lat="45.58251" lon="6.07252">
        <ele>1362</ele>
        <time>2018-09-05T09:14:31Z</time>
      </trkpt>
      <trkpt lat="45.58255" lon="6.07263">
        <ele>1362</ele>
        <time>2018-09-05T09:14:43Z</time>
      </trkpt>
      <trkpt lat="45.58263" lon="6.07275">
        <ele>1364</ele>
        <time>2018-09-05T09:15:07Z</time>
      </trkpt>
      <trkpt lat="45.58271" lon="6.07288">
        <ele>1368</ele>
        <time>2018-09-05T09:15:26Z</time>
      </trkpt>
      <trkpt lat="45.58267" lon="6.073">
        <ele>1371</ele>
        <time>2018-09-05T09:15:51Z</time>
      </trkpt>
      <trkpt lat="45.58277" lon="6.07301">
        <ele>1374</ele>
        <time>2018-09-05T09:16:13Z</time>
      </trkpt>
      <trkpt lat="45.58292" lon="6.07313">
        <ele>1380</ele>
        <time>2018-09-05T09:16:45Z</time>
      </trkpt>
      <trkpt lat="45.58297" lon="6.07311">
        <ele>1380</ele>
        <time>2018-09-05T09:17:03Z</time>
      </trkpt>
      <trkpt lat="45.58302" lon="6.07313">
        <ele>1381</ele>
        <time>2018-09-05T09:17:15Z</time>
      </trkpt>
      <trkpt lat="45.58308" lon="6.07318">
        <ele>1383</ele>
        <time>2018-09-05T09:17:27Z</time>
      </trkpt>
      <trkpt lat="45.58309" lon="6.07325">
        <ele>1384</ele>
        <time>2018-09-05T09:17:32Z</time>
      </trkpt>
      <trkpt lat="45.58316" lon="6.07328">
        <ele>1385</ele>
        <time>2018-09-05T09:17:45Z</time>
      </trkpt>
      <trkpt lat="45.58325" lon="6.07337">
        <ele>1388</ele>
        <time>2018-09-05T09:18:03Z</time>
      </trkpt>
      <trkpt lat="45.58334" lon="6.07338">
        <ele>1392</ele>
        <time>2018-09-05T09:18:33Z</time>
      </trkpt>
      <trkpt lat="45.58339" lon="6.07339">
        <ele>1392</ele>
        <time>2018-09-05T09:18:45Z</time>
      </trkpt>
      <trkpt lat="45.58342" lon="6.07345">
        <ele>1395</ele>
        <time>2018-09-05T09:18:57Z</time>
      </trkpt>
      <trkpt lat="45.58348" lon="6.07348">
        <ele>1395</ele>
        <time>2018-09-05T09:19:09Z</time>
      </trkpt>
      <trkpt lat="45.5836" lon="6.07359">
        <ele>1398</ele>
        <time>2018-09-05T09:19:33Z</time>
      </trkpt>
      <trkpt lat="45.58367" lon="6.07359">
        <ele>1402</ele>
        <time>2018-09-05T09:19:51Z</time>
      </trkpt>
      <trkpt lat="45.58371" lon="6.07354">
        <ele>1401</ele>
        <time>2018-09-05T09:20:03Z</time>
      </trkpt>
      <trkpt lat="45.58379" lon="6.0736">
        <ele>1405</ele>
        <time>2018-09-05T09:20:15Z</time>
      </trkpt>
      <trkpt lat="45.58386" lon="6.07373">
        <ele>1408</ele>
        <time>2018-09-05T09:20:40Z</time>
      </trkpt>
      <trkpt lat="45.58381" lon="6.07387">
        <ele>1413</ele>
        <time>2018-09-05T09:21:16Z</time>
      </trkpt>
      <trkpt lat="45.58377" lon="6.07391">
        <ele>1414</ele>
        <time>2018-09-05T09:21:28Z</time>
      </trkpt>
      <trkpt lat="45.58372" lon="6.07394">
        <ele>1417</ele>
        <time>2018-09-05T09:21:46Z</time>
      </trkpt>
      <trkpt lat="45.58367" lon="6.074">
        <ele>1417</ele>
        <time>2018-09-05T09:21:58Z</time>
      </trkpt>
      <trkpt lat="45.58354" lon="6.07403">
        <ele>1421</ele>
        <time>2018-09-05T09:22:22Z</time>
      </trkpt>
      <trkpt lat="45.58348" lon="6.07407">
        <ele>1423</ele>
        <time>2018-09-05T09:22:34Z</time>
      </trkpt>
      <trkpt lat="45.58342" lon="6.07408">
        <ele>1425</ele>
        <time>2018-09-05T09:22:46Z</time>
      </trkpt>
      <trkpt lat="45.58336" lon="6.07402">
        <ele>1423</ele>
        <time>2018-09-05T09:22:55Z</time>
      </trkpt>
      <trkpt lat="45.58331" lon="6.074">
        <ele>1423</ele>
        <time>2018-09-05T09:23:00Z</time>
      </trkpt>
      <trkpt lat="45.58327" lon="6.07398">
        <ele>1424</ele>
        <time>2018-09-05T09:23:05Z</time>
      </trkpt>
      <trkpt lat="45.58323" lon="6.07404">
        <ele>1425</ele>
        <time>2018-09-05T09:23:23Z</time>
      </trkpt>
      <trkpt lat="45.58317" lon="6.07408">
        <ele>1428</ele>
        <time>2018-09-05T09:23:38Z</time>
      </trkpt>
      <trkpt lat="45.58312" lon="6.07406">
        <ele>1429</ele>
        <time>2018-09-05T09:23:44Z</time>
      </trkpt>
      <trkpt lat="45.58307" lon="6.07406">
        <ele>1430</ele>
        <time>2018-09-05T09:23:56Z</time>
      </trkpt>
      <trkpt lat="45.58304" lon="6.07414">
        <ele>1433</ele>
        <time>2018-09-05T09:24:08Z</time>
      </trkpt>
      <trkpt lat="45.58301" lon="6.07419">
        <ele>1434</ele>
        <time>2018-09-05T09:24:20Z</time>
      </trkpt>
      <trkpt lat="45.58293" lon="6.07416">
        <ele>1435</ele>
        <time>2018-09-05T09:24:39Z</time>
      </trkpt>
      <trkpt lat="45.58286" lon="6.07413">
        <ele>1435</ele>
        <time>2018-09-05T09:24:51Z</time>
      </trkpt>
      <trkpt lat="45.58279" lon="6.07414">
        <ele>1435</ele>
        <time>2018-09-05T09:25:03Z</time>
      </trkpt>
      <trkpt lat="45.58261" lon="6.07421">
        <ele>1439</ele>
        <time>2018-09-05T09:25:39Z</time>
      </trkpt>
      <trkpt lat="45.58259" lon="6.07427">
        <ele>1442</ele>
        <time>2018-09-05T09:25:51Z</time>
      </trkpt>
      <trkpt lat="45.58254" lon="6.07432">
        <ele>1443</ele>
        <time>2018-09-05T09:26:03Z</time>
      </trkpt>
      <trkpt lat="45.58249" lon="6.07436">
        <ele>1445</ele>
        <time>2018-09-05T09:26:15Z</time>
      </trkpt>
      <trkpt lat="45.58245" lon="6.07438">
        <ele>1448</ele>
        <time>2018-09-05T09:26:33Z</time>
      </trkpt>
      <trkpt lat="45.58228" lon="6.07438">
        <ele>1454</ele>
        <time>2018-09-05T09:27:15Z</time>
      </trkpt>
      <trkpt lat="45.58225" lon="6.07443">
        <ele>1454</ele>
        <time>2018-09-05T09:27:33Z</time>
      </trkpt>
      <trkpt lat="45.58217" lon="6.07447">
        <ele>1456</ele>
        <time>2018-09-05T09:27:45Z</time>
      </trkpt>
      <trkpt lat="45.58214" lon="6.07454">
        <ele>1456</ele>
        <time>2018-09-05T09:29:03Z</time>
      </trkpt>
      <trkpt lat="45.58209" lon="6.07454">
        <ele>1455</ele>
        <time>2018-09-05T09:29:57Z</time>
      </trkpt>
      <trkpt lat="45.58205" lon="6.07453">
        <ele>1455</ele>
        <time>2018-09-05T09:30:02Z</time>
      </trkpt>
      <trkpt lat="45.58199" lon="6.0745">
        <ele>1457</ele>
        <time>2018-09-05T09:30:29Z</time>
      </trkpt>
      <trkpt lat="45.58193" lon="6.07449">
        <ele>1457</ele>
        <time>2018-09-05T09:30:41Z</time>
      </trkpt>
      <trkpt lat="45.58187" lon="6.07444">
        <ele>1453</ele>
        <time>2018-09-05T09:30:52Z</time>
      </trkpt>
      <trkpt lat="45.58183" lon="6.07437">
        <ele>1455</ele>
        <time>2018-09-05T09:30:57Z</time>
      </trkpt>
      <trkpt lat="45.58179" lon="6.07432">
        <ele>1454</ele>
        <time>2018-09-05T09:31:02Z</time>
      </trkpt>
      <trkpt lat="45.58172" lon="6.07434">
        <ele>1452</ele>
        <time>2018-09-05T09:31:10Z</time>
      </trkpt>
      <trkpt lat="45.58167" lon="6.07435">
        <ele>1452</ele>
        <time>2018-09-05T09:31:14Z</time>
      </trkpt>
      <trkpt lat="45.58157" lon="6.07442">
        <ele>1452</ele>
        <time>2018-09-05T09:31:23Z</time>
      </trkpt>
      <trkpt lat="45.58152" lon="6.07443">
        <ele>1451</ele>
        <time>2018-09-05T09:31:27Z</time>
      </trkpt>
      <trkpt lat="45.58141" lon="6.07443">
        <ele>1449</ele>
        <time>2018-09-05T09:31:40Z</time>
      </trkpt>
      <trkpt lat="45.58136" lon="6.07448">
        <ele>1448</ele>
        <time>2018-09-05T09:31:45Z</time>
      </trkpt>
      <trkpt lat="45.58132" lon="6.07449">
        <ele>1447</ele>
        <time>2018-09-05T09:31:50Z</time>
      </trkpt>
      <trkpt lat="45.58126" lon="6.07451">
        <ele>1448</ele>
        <time>2018-09-05T09:31:58Z</time>
      </trkpt>
      <trkpt lat="45.58116" lon="6.0745">
        <ele>1447</ele>
        <time>2018-09-05T09:32:08Z</time>
      </trkpt>
      <trkpt lat="45.58111" lon="6.07449">
        <ele>1446</ele>
        <time>2018-09-05T09:32:16Z</time>
      </trkpt>
      <trkpt lat="45.58093" lon="6.07455">
        <ele>1441</ele>
        <time>2018-09-05T09:32:39Z</time>
      </trkpt>
      <trkpt lat="45.58089" lon="6.07453">
        <ele>1441</ele>
        <time>2018-09-05T09:32:44Z</time>
      </trkpt>
      <trkpt lat="45.58082" lon="6.07453">
        <ele>1439</ele>
        <time>2018-09-05T09:32:52Z</time>
      </trkpt>
      <trkpt lat="45.58078" lon="6.0745">
        <ele>1439</ele>
        <time>2018-09-05T09:32:57Z</time>
      </trkpt>
      <trkpt lat="45.58074" lon="6.07452">
        <ele>1438</ele>
        <time>2018-09-05T09:33:02Z</time>
      </trkpt>
      <trkpt lat="45.58055" lon="6.07449">
        <ele>1437</ele>
        <time>2018-09-05T09:33:20Z</time>
      </trkpt>
      <trkpt lat="45.5805" lon="6.07444">
        <ele>1436</ele>
        <time>2018-09-05T09:33:28Z</time>
      </trkpt>
      <trkpt lat="45.58045" lon="6.07446">
        <ele>1436</ele>
        <time>2018-09-05T09:33:33Z</time>
      </trkpt>
      <trkpt lat="45.5803" lon="6.0744">
        <ele>1435</ele>
        <time>2018-09-05T09:33:45Z</time>
      </trkpt>
      <trkpt lat="45.58015" lon="6.07431">
        <ele>1436</ele>
        <time>2018-09-05T09:34:04Z</time>
      </trkpt>
      <trkpt lat="45.58006" lon="6.07431">
        <ele>1436</ele>
        <time>2018-09-05T09:34:15Z</time>
      </trkpt>
      <trkpt lat="45.58001" lon="6.07432">
        <ele>1435</ele>
        <time>2018-09-05T09:34:21Z</time>
      </trkpt>
      <trkpt lat="45.57994" lon="6.07431">
        <ele>1435</ele>
        <time>2018-09-05T09:34:28Z</time>
      </trkpt>
      <trkpt lat="45.57989" lon="6.07433">
        <ele>1435</ele>
        <time>2018-09-05T09:34:33Z</time>
      </trkpt>
      <trkpt lat="45.57981" lon="6.0743">
        <ele>1435</ele>
        <time>2018-09-05T09:34:42Z</time>
      </trkpt>
      <trkpt lat="45.57976" lon="6.07432">
        <ele>1435</ele>
        <time>2018-09-05T09:34:46Z</time>
      </trkpt>
      <trkpt lat="45.57967" lon="6.07426">
        <ele>1435</ele>
        <time>2018-09-05T09:34:56Z</time>
      </trkpt>
      <trkpt lat="45.57963" lon="6.07426">
        <ele>1435</ele>
        <time>2018-09-05T09:35:00Z</time>
      </trkpt>
      <trkpt lat="45.57955" lon="6.07431">
        <ele>1436</ele>
        <time>2018-09-05T09:35:32Z</time>
      </trkpt>
      <trkpt lat="45.57948" lon="6.07429">
        <ele>1436</ele>
        <time>2018-09-05T09:35:39Z</time>
      </trkpt>
      <trkpt lat="45.57943" lon="6.0743">
        <ele>1437</ele>
        <time>2018-09-05T09:35:47Z</time>
      </trkpt>
      <trkpt lat="45.57939" lon="6.07434">
        <ele>1437</ele>
        <time>2018-09-05T09:35:52Z</time>
      </trkpt>
      <trkpt lat="45.57933" lon="6.07435">
        <ele>1436</ele>
        <time>2018-09-05T09:36:00Z</time>
      </trkpt>
      <trkpt lat="45.57926" lon="6.07438">
        <ele>1437</ele>
        <time>2018-09-05T09:36:10Z</time>
      </trkpt>
      <trkpt lat="45.57917" lon="6.07438">
        <ele>1437</ele>
        <time>2018-09-05T09:36:22Z</time>
      </trkpt>
      <trkpt lat="45.57912" lon="6.07437">
        <ele>1437</ele>
        <time>2018-09-05T09:36:27Z</time>
      </trkpt>
      <trkpt lat="45.57903" lon="6.07444">
        <ele>1436</ele>
        <time>2018-09-05T09:36:37Z</time>
      </trkpt>
      <trkpt lat="45.57899" lon="6.07445">
        <ele>1435</ele>
        <time>2018-09-05T09:36:42Z</time>
      </trkpt>
      <trkpt lat="45.57895" lon="6.07441">
        <ele>1435</ele>
        <time>2018-09-05T09:36:46Z</time>
      </trkpt>
      <trkpt lat="45.5789" lon="6.07442">
        <ele>1436</ele>
        <time>2018-09-05T09:36:52Z</time>
      </trkpt>
      <trkpt lat="45.5788" lon="6.07448">
        <ele>1435</ele>
        <time>2018-09-05T09:36:59Z</time>
      </trkpt>
      <trkpt lat="45.57876" lon="6.0745">
        <ele>1434</ele>
        <time>2018-09-05T09:37:03Z</time>
      </trkpt>
      <trkpt lat="45.57861" lon="6.07454">
        <ele>1434</ele>
        <time>2018-09-05T09:37:17Z</time>
      </trkpt>
      <trkpt lat="45.57856" lon="6.07456">
        <ele>1431</ele>
        <time>2018-09-05T09:37:21Z</time>
      </trkpt>
      <trkpt lat="45.5785" lon="6.07457">
        <ele>1436</ele>
        <time>2018-09-05T09:37:26Z</time>
      </trkpt>
      <trkpt lat="45.57845" lon="6.07461">
        <ele>1435</ele>
        <time>2018-09-05T09:37:31Z</time>
      </trkpt>
      <trkpt lat="45.5784" lon="6.07463">
        <ele>1437</ele>
        <time>2018-09-05T09:40:42Z</time>
      </trkpt>
      <trkpt lat="45.57836" lon="6.07465">
        <ele>1438</ele>
        <time>2018-09-05T09:40:47Z</time>
      </trkpt>
      <trkpt lat="45.57829" lon="6.07465">
        <ele>1438</ele>
        <time>2018-09-05T09:40:55Z</time>
      </trkpt>
      <trkpt lat="45.57824" lon="6.07467">
        <ele>1438</ele>
        <time>2018-09-05T09:41:00Z</time>
      </trkpt>
      <trkpt lat="45.5782" lon="6.0747">
        <ele>1437</ele>
        <time>2018-09-05T09:41:04Z</time>
      </trkpt>
      <trkpt lat="45.57815" lon="6.07472">
        <ele>1437</ele>
        <time>2018-09-05T09:41:08Z</time>
      </trkpt>
      <trkpt lat="45.57811" lon="6.07473">
        <ele>1437</ele>
        <time>2018-09-05T09:41:12Z</time>
      </trkpt>
      <trkpt lat="45.57802" lon="6.07476">
        <ele>1437</ele>
        <time>2018-09-05T09:41:20Z</time>
      </trkpt>
      <trkpt lat="45.57787" lon="6.07486">
        <ele>1436</ele>
        <time>2018-09-05T09:41:35Z</time>
      </trkpt>
      <trkpt lat="45.57783" lon="6.07491">
        <ele>1436</ele>
        <time>2018-09-05T09:41:39Z</time>
      </trkpt>
      <trkpt lat="45.57769" lon="6.07502">
        <ele>1436</ele>
        <time>2018-09-05T09:41:53Z</time>
      </trkpt>
      <trkpt lat="45.57767" lon="6.07507">
        <ele>1436</ele>
        <time>2018-09-05T09:41:57Z</time>
      </trkpt>
      <trkpt lat="45.57765" lon="6.07514">
        <ele>1437</ele>
        <time>2018-09-05T09:42:01Z</time>
      </trkpt>
      <trkpt lat="45.57762" lon="6.0752">
        <ele>1437</ele>
        <time>2018-09-05T09:42:05Z</time>
      </trkpt>
      <trkpt lat="45.57758" lon="6.07525">
        <ele>1436</ele>
        <time>2018-09-05T09:42:10Z</time>
      </trkpt>
      <trkpt lat="45.57753" lon="6.07526">
        <ele>1436</ele>
        <time>2018-09-05T09:42:18Z</time>
      </trkpt>
      <trkpt lat="45.57728" lon="6.07519">
        <ele>1437</ele>
        <time>2018-09-05T09:42:46Z</time>
      </trkpt>
      <trkpt lat="45.57724" lon="6.07516">
        <ele>1437</ele>
        <time>2018-09-05T09:42:50Z</time>
      </trkpt>
      <trkpt lat="45.5772" lon="6.07512">
        <ele>1437</ele>
        <time>2018-09-05T09:42:54Z</time>
      </trkpt>
      <trkpt lat="45.57717" lon="6.07507">
        <ele>1437</ele>
        <time>2018-09-05T09:42:58Z</time>
      </trkpt>
      <trkpt lat="45.57713" lon="6.07501">
        <ele>1437</ele>
        <time>2018-09-05T09:43:03Z</time>
      </trkpt>
      <trkpt lat="45.57694" lon="6.07475">
        <ele>1441</ele>
        <time>2018-09-05T09:44:19Z</time>
      </trkpt>
      <trkpt lat="45.57686" lon="6.07467">
        <ele>1441</ele>
        <time>2018-09-05T09:44:29Z</time>
      </trkpt>
      <trkpt lat="45.57662" lon="6.07447">
        <ele>1442</ele>
        <time>2018-09-05T09:44:55Z</time>
      </trkpt>
      <trkpt lat="45.57654" lon="6.07439">
        <ele>1443</ele>
        <time>2018-09-05T09:45:09Z</time>
      </trkpt>
      <trkpt lat="45.57644" lon="6.07435">
        <ele>1443</ele>
        <time>2018-09-05T09:45:18Z</time>
      </trkpt>
      <trkpt lat="45.57633" lon="6.07437">
        <ele>1444</ele>
        <time>2018-09-05T09:45:31Z</time>
      </trkpt>
      <trkpt lat="45.57628" lon="6.07434">
        <ele>1444</ele>
        <time>2018-09-05T09:45:36Z</time>
      </trkpt>
      <trkpt lat="45.57623" lon="6.07432">
        <ele>1444</ele>
        <time>2018-09-05T09:45:40Z</time>
      </trkpt>
      <trkpt lat="45.57617" lon="6.07428">
        <ele>1444</ele>
        <time>2018-09-05T09:45:47Z</time>
      </trkpt>
      <trkpt lat="45.57613" lon="6.07425">
        <ele>1445</ele>
        <time>2018-09-05T09:45:52Z</time>
      </trkpt>
      <trkpt lat="45.57608" lon="6.07423">
        <ele>1445</ele>
        <time>2018-09-05T09:45:57Z</time>
      </trkpt>
      <trkpt lat="45.57602" lon="6.07423">
        <ele>1445</ele>
        <time>2018-09-05T09:46:02Z</time>
      </trkpt>
      <trkpt lat="45.57597" lon="6.07421">
        <ele>1445</ele>
        <time>2018-09-05T09:46:07Z</time>
      </trkpt>
      <trkpt lat="45.57587" lon="6.07418">
        <ele>1446</ele>
        <time>2018-09-05T09:46:19Z</time>
      </trkpt>
      <trkpt lat="45.57582" lon="6.07416">
        <ele>1446</ele>
        <time>2018-09-05T09:46:24Z</time>
      </trkpt>
      <trkpt lat="45.57577" lon="6.07416">
        <ele>1446</ele>
        <time>2018-09-05T09:46:32Z</time>
      </trkpt>
      <trkpt lat="45.57566" lon="6.07407">
        <ele>1446</ele>
        <time>2018-09-05T09:46:46Z</time>
      </trkpt>
      <trkpt lat="45.57561" lon="6.07406">
        <ele>1447</ele>
        <time>2018-09-05T09:46:51Z</time>
      </trkpt>
      <trkpt lat="45.57553" lon="6.07396">
        <ele>1447</ele>
        <time>2018-09-05T09:47:00Z</time>
      </trkpt>
      <trkpt lat="45.57548" lon="6.07392">
        <ele>1447</ele>
        <time>2018-09-05T09:47:07Z</time>
      </trkpt>
      <trkpt lat="45.5753" lon="6.0738">
        <ele>1447</ele>
        <time>2018-09-05T09:47:33Z</time>
      </trkpt>
      <trkpt lat="45.57523" lon="6.07374">
        <ele>1446</ele>
        <time>2018-09-05T09:47:43Z</time>
      </trkpt>
      <trkpt lat="45.57518" lon="6.07371">
        <ele>1445</ele>
        <time>2018-09-05T09:47:51Z</time>
      </trkpt>
      <trkpt lat="45.5751" lon="6.07356">
        <ele>1445</ele>
        <time>2018-09-05T09:48:05Z</time>
      </trkpt>
      <trkpt lat="45.57501" lon="6.07346">
        <ele>1444</ele>
        <time>2018-09-05T09:48:14Z</time>
      </trkpt>
      <trkpt lat="45.57498" lon="6.07341">
        <ele>1444</ele>
        <time>2018-09-05T09:48:18Z</time>
      </trkpt>
      <trkpt lat="45.57489" lon="6.07333">
        <ele>1442</ele>
        <time>2018-09-05T09:48:27Z</time>
      </trkpt>
      <trkpt lat="45.57485" lon="6.07328">
        <ele>1442</ele>
        <time>2018-09-05T09:48:31Z</time>
      </trkpt>
      <trkpt lat="45.5748" lon="6.07314">
        <ele>1442</ele>
        <time>2018-09-05T09:48:41Z</time>
      </trkpt>
      <trkpt lat="45.57478" lon="6.07287">
        <ele>1440</ele>
        <time>2018-09-05T09:49:01Z</time>
      </trkpt>
      <trkpt lat="45.57475" lon="6.0728">
        <ele>1439</ele>
        <time>2018-09-05T09:49:06Z</time>
      </trkpt>
      <trkpt lat="45.57471" lon="6.07276">
        <ele>1439</ele>
        <time>2018-09-05T09:49:10Z</time>
      </trkpt>
      <trkpt lat="45.57438" lon="6.07258">
        <ele>1438</ele>
        <time>2018-09-05T09:49:42Z</time>
      </trkpt>
      <trkpt lat="45.57424" lon="6.0725">
        <ele>1437</ele>
        <time>2018-09-05T09:49:56Z</time>
      </trkpt>
      <trkpt lat="45.57419" lon="6.07248">
        <ele>1437</ele>
        <time>2018-09-05T09:50:00Z</time>
      </trkpt>
      <trkpt lat="45.57414" lon="6.07246">
        <ele>1436</ele>
        <time>2018-09-05T09:50:04Z</time>
      </trkpt>
      <trkpt lat="45.5741" lon="6.07243">
        <ele>1437</ele>
        <time>2018-09-05T09:50:08Z</time>
      </trkpt>
      <trkpt lat="45.57406" lon="6.0724">
        <ele>1437</ele>
        <time>2018-09-05T09:50:17Z</time>
      </trkpt>
      <trkpt lat="45.57401" lon="6.07238">
        <ele>1437</ele>
        <time>2018-09-05T09:50:22Z</time>
      </trkpt>
      <trkpt lat="45.57391" lon="6.07236">
        <ele>1438</ele>
        <time>2018-09-05T09:50:31Z</time>
      </trkpt>
      <trkpt lat="45.57377" lon="6.07227">
        <ele>1439</ele>
        <time>2018-09-05T09:50:45Z</time>
      </trkpt>
      <trkpt lat="45.57372" lon="6.07225">
        <ele>1438</ele>
        <time>2018-09-05T09:50:50Z</time>
      </trkpt>
      <trkpt lat="45.57364" lon="6.07218">
        <ele>1440</ele>
        <time>2018-09-05T09:51:41Z</time>
      </trkpt>
      <trkpt lat="45.5736" lon="6.07215">
        <ele>1441</ele>
        <time>2018-09-05T09:51:46Z</time>
      </trkpt>
      <trkpt lat="45.5735" lon="6.07215">
        <ele>1443</ele>
        <time>2018-09-05T09:51:56Z</time>
      </trkpt>
      <trkpt lat="45.57345" lon="6.07218">
        <ele>1444</ele>
        <time>2018-09-05T09:52:05Z</time>
      </trkpt>
      <trkpt lat="45.57343" lon="6.07225">
        <ele>1445</ele>
        <time>2018-09-05T09:52:10Z</time>
      </trkpt>
      <trkpt lat="45.57338" lon="6.07227">
        <ele>1448</ele>
        <time>2018-09-05T09:52:18Z</time>
      </trkpt>
      <trkpt lat="45.57336" lon="6.07221">
        <ele>1447</ele>
        <time>2018-09-05T09:52:29Z</time>
      </trkpt>
      <trkpt lat="45.5733" lon="6.07215">
        <ele>1449</ele>
        <time>2018-09-05T09:52:39Z</time>
      </trkpt>
      <trkpt lat="45.57326" lon="6.07212">
        <ele>1450</ele>
        <time>2018-09-05T09:52:43Z</time>
      </trkpt>
      <trkpt lat="45.57297" lon="6.07205">
        <ele>1456</ele>
        <time>2018-09-05T09:53:19Z</time>
      </trkpt>
      <trkpt lat="45.5729" lon="6.07204">
        <ele>1460</ele>
        <time>2018-09-05T09:53:31Z</time>
      </trkpt>
      <trkpt lat="45.57283" lon="6.07209">
        <ele>1458</ele>
        <time>2018-09-05T09:53:43Z</time>
      </trkpt>
      <trkpt lat="45.57268" lon="6.07212">
        <ele>1463</ele>
        <time>2018-09-05T09:54:06Z</time>
      </trkpt>
      <trkpt lat="45.57258" lon="6.07205">
        <ele>1466</ele>
        <time>2018-09-05T09:54:23Z</time>
      </trkpt>
      <trkpt lat="45.57255" lon="6.07198">
        <ele>1467</ele>
        <time>2018-09-05T09:54:35Z</time>
      </trkpt>
      <trkpt lat="45.5725" lon="6.07193">
        <ele>1470</ele>
        <time>2018-09-05T09:54:53Z</time>
      </trkpt>
      <trkpt lat="45.57247" lon="6.07187">
        <ele>1472</ele>
        <time>2018-09-05T09:55:11Z</time>
      </trkpt>
      <trkpt lat="45.57242" lon="6.07178">
        <ele>1473</ele>
        <time>2018-09-05T09:55:23Z</time>
      </trkpt>
      <trkpt lat="45.57229" lon="6.07172">
        <ele>1477</ele>
        <time>2018-09-05T09:55:47Z</time>
      </trkpt>
      <trkpt lat="45.57223" lon="6.07173">
        <ele>1478</ele>
        <time>2018-09-05T09:55:59Z</time>
      </trkpt>
      <trkpt lat="45.57219" lon="6.07165">
        <ele>1479</ele>
        <time>2018-09-05T09:56:11Z</time>
      </trkpt>
      <trkpt lat="45.57208" lon="6.07161">
        <ele>1483</ele>
        <time>2018-09-05T09:56:28Z</time>
      </trkpt>
      <trkpt lat="45.57202" lon="6.07159">
        <ele>1483</ele>
        <time>2018-09-05T09:56:36Z</time>
      </trkpt>
      <trkpt lat="45.57193" lon="6.07158">
        <ele>1485</ele>
        <time>2018-09-05T09:56:47Z</time>
      </trkpt>
      <trkpt lat="45.57189" lon="6.07155">
        <ele>1486</ele>
        <time>2018-09-05T09:56:59Z</time>
      </trkpt>
      <trkpt lat="45.57186" lon="6.07149">
        <ele>1487</ele>
        <time>2018-09-05T09:57:11Z</time>
      </trkpt>
      <trkpt lat="45.5718" lon="6.07148">
        <ele>1489</ele>
        <time>2018-09-05T09:57:23Z</time>
      </trkpt>
      <trkpt lat="45.57174" lon="6.07144">
        <ele>1491</ele>
        <time>2018-09-05T09:57:35Z</time>
      </trkpt>
      <trkpt lat="45.57169" lon="6.07142">
        <ele>1494</ele>
        <time>2018-09-05T09:57:53Z</time>
      </trkpt>
      <trkpt lat="45.57166" lon="6.07133">
        <ele>1495</ele>
        <time>2018-09-05T09:58:05Z</time>
      </trkpt>
      <trkpt lat="45.57163" lon="6.07128">
        <ele>1497</ele>
        <time>2018-09-05T09:58:17Z</time>
      </trkpt>
      <trkpt lat="45.57161" lon="6.07121">
        <ele>1498</ele>
        <time>2018-09-05T09:58:28Z</time>
      </trkpt>
      <trkpt lat="45.57158" lon="6.07112">
        <ele>1500</ele>
        <time>2018-09-05T09:58:41Z</time>
      </trkpt>
      <trkpt lat="45.57154" lon="6.07102">
        <ele>1501</ele>
        <time>2018-09-05T09:58:51Z</time>
      </trkpt>
      <trkpt lat="45.57154" lon="6.07088">
        <ele>1505</ele>
        <time>2018-09-05T09:59:17Z</time>
      </trkpt>
      <trkpt lat="45.57151" lon="6.07079">
        <ele>1507</ele>
        <time>2018-09-05T09:59:29Z</time>
      </trkpt>
      <trkpt lat="45.57147" lon="6.07073">
        <ele>1507</ele>
        <time>2018-09-05T09:59:44Z</time>
      </trkpt>
      <trkpt lat="45.57146" lon="6.07065">
        <ele>1509</ele>
        <time>2018-09-05T09:59:56Z</time>
      </trkpt>
      <trkpt lat="45.57139" lon="6.07055">
        <ele>1514</ele>
        <time>2018-09-05T10:00:24Z</time>
      </trkpt>
      <trkpt lat="45.57131" lon="6.07046">
        <ele>1518</ele>
        <time>2018-09-05T10:00:48Z</time>
      </trkpt>
      <trkpt lat="45.57126" lon="6.07038">
        <ele>1518</ele>
        <time>2018-09-05T10:01:12Z</time>
      </trkpt>
      <trkpt lat="45.57123" lon="6.07033">
        <ele>1520</ele>
        <time>2018-09-05T10:01:30Z</time>
      </trkpt>
      <trkpt lat="45.57117" lon="6.07058">
        <ele>1526</ele>
        <time>2018-09-05T10:02:03Z</time>
      </trkpt>
      <trkpt lat="45.57113" lon="6.07073">
        <ele>1530</ele>
        <time>2018-09-05T10:02:27Z</time>
      </trkpt>
      <trkpt lat="45.57111" lon="6.0708">
        <ele>1532</ele>
        <time>2018-09-05T10:02:39Z</time>
      </trkpt>
      <trkpt lat="45.57093" lon="6.0707">
        <ele>1537</ele>
        <time>2018-09-05T10:03:21Z</time>
      </trkpt>
      <trkpt lat="45.57086" lon="6.07069">
        <ele>1538</ele>
        <time>2018-09-05T10:03:33Z</time>
      </trkpt>
      <trkpt lat="45.5707" lon="6.07059">
        <ele>1543</ele>
        <time>2018-09-05T10:04:09Z</time>
      </trkpt>
      <trkpt lat="45.57059" lon="6.07055">
        <ele>1547</ele>
        <time>2018-09-05T10:04:31Z</time>
      </trkpt>
      <trkpt lat="45.57054" lon="6.07049">
        <ele>1549</ele>
        <time>2018-09-05T10:04:46Z</time>
      </trkpt>
      <trkpt lat="45.57049" lon="6.0705">
        <ele>1551</ele>
        <time>2018-09-05T10:05:02Z</time>
      </trkpt>
      <trkpt lat="45.57043" lon="6.07045">
        <ele>1554</ele>
        <time>2018-09-05T10:05:20Z</time>
      </trkpt>
      <trkpt lat="45.57038" lon="6.07044">
        <ele>1556</ele>
        <time>2018-09-05T10:05:32Z</time>
      </trkpt>
      <trkpt lat="45.57028" lon="6.07038">
        <ele>1561</ele>
        <time>2018-09-05T10:06:02Z</time>
      </trkpt>
      <trkpt lat="45.57023" lon="6.07036">
        <ele>1563</ele>
        <time>2018-09-05T10:06:20Z</time>
      </trkpt>
      <trkpt lat="45.5702" lon="6.0703">
        <ele>1565</ele>
        <time>2018-09-05T10:06:32Z</time>
      </trkpt>
      <trkpt lat="45.57017" lon="6.07023">
        <ele>1567</ele>
        <time>2018-09-05T10:06:59Z</time>
      </trkpt>
      <trkpt lat="45.57013" lon="6.07017">
        <ele>1568</ele>
        <time>2018-09-05T10:07:10Z</time>
      </trkpt>
      <trkpt lat="45.57007" lon="6.07012">
        <ele>1569</ele>
        <time>2018-09-05T10:07:22Z</time>
      </trkpt>
      <trkpt lat="45.57002" lon="6.07007">
        <ele>1571</ele>
        <time>2018-09-05T10:07:34Z</time>
      </trkpt>
      <trkpt lat="45.56997" lon="6.07004">
        <ele>1575</ele>
        <time>2018-09-05T10:07:52Z</time>
      </trkpt>
      <trkpt lat="45.56992" lon="6.06999">
        <ele>1577</ele>
        <time>2018-09-05T10:08:10Z</time>
      </trkpt>
      <trkpt lat="45.5698" lon="6.06985">
        <ele>1582</ele>
        <time>2018-09-05T10:08:52Z</time>
      </trkpt>
      <trkpt lat="45.56975" lon="6.06981">
        <ele>1584</ele>
        <time>2018-09-05T10:09:04Z</time>
      </trkpt>
      <trkpt lat="45.56971" lon="6.06975">
        <ele>1586</ele>
        <time>2018-09-05T10:09:16Z</time>
      </trkpt>
      <trkpt lat="45.56966" lon="6.06969">
        <ele>1585</ele>
        <time>2018-09-05T10:09:34Z</time>
      </trkpt>
      <trkpt lat="45.56959" lon="6.06963">
        <ele>1586</ele>
        <time>2018-09-05T10:09:46Z</time>
      </trkpt>
      <trkpt lat="45.56956" lon="6.06957">
        <ele>1586</ele>
        <time>2018-09-05T10:09:52Z</time>
      </trkpt>
      <trkpt lat="45.56953" lon="6.06952">
        <ele>1587</ele>
        <time>2018-09-05T10:09:58Z</time>
      </trkpt>
      <trkpt lat="45.5695" lon="6.06947">
        <ele>1587</ele>
        <time>2018-09-05T10:10:03Z</time>
      </trkpt>
      <trkpt lat="45.56943" lon="6.06939">
        <ele>1587</ele>
        <time>2018-09-05T10:10:13Z</time>
      </trkpt>
      <trkpt lat="45.56938" lon="6.06936">
        <ele>1588</ele>
        <time>2018-09-05T10:10:21Z</time>
      </trkpt>
      <trkpt lat="45.56928" lon="6.06922">
        <ele>1589</ele>
        <time>2018-09-05T10:10:51Z</time>
      </trkpt>
      <trkpt lat="45.56924" lon="6.06918">
        <ele>1589</ele>
        <time>2018-09-05T10:10:57Z</time>
      </trkpt>
      <trkpt lat="45.56914" lon="6.06906">
        <ele>1591</ele>
        <time>2018-09-05T10:11:15Z</time>
      </trkpt>
      <trkpt lat="45.56894" lon="6.0689">
        <ele>1594</ele>
        <time>2018-09-05T10:11:51Z</time>
      </trkpt>
      <trkpt lat="45.56887" lon="6.06883">
        <ele>1595</ele>
        <time>2018-09-05T10:12:03Z</time>
      </trkpt>
      <trkpt lat="45.5687" lon="6.06876">
        <ele>1599</ele>
        <time>2018-09-05T10:12:38Z</time>
      </trkpt>
      <trkpt lat="45.56863" lon="6.06877">
        <ele>1601</ele>
        <time>2018-09-05T10:12:58Z</time>
      </trkpt>
      <trkpt lat="45.56858" lon="6.06875">
        <ele>1599</ele>
        <time>2018-09-05T10:13:34Z</time>
      </trkpt>
      <trkpt lat="45.56854" lon="6.06884">
        <ele>1604</ele>
        <time>2018-09-05T10:13:46Z</time>
      </trkpt>
      <trkpt lat="45.56851" lon="6.06889">
        <ele>1603</ele>
        <time>2018-09-05T10:13:58Z</time>
      </trkpt>
      <trkpt lat="45.56846" lon="6.069">
        <ele>1604</ele>
        <time>2018-09-05T10:14:21Z</time>
      </trkpt>
      <trkpt lat="45.56841" lon="6.06912">
        <ele>1605</ele>
        <time>2018-09-05T10:14:31Z</time>
      </trkpt>
      <trkpt lat="45.56834" lon="6.06932">
        <ele>1605</ele>
        <time>2018-09-05T10:14:47Z</time>
      </trkpt>
      <trkpt lat="45.56833" lon="6.06943">
        <ele>1604</ele>
        <time>2018-09-05T10:14:55Z</time>
      </trkpt>
      <trkpt lat="45.56831" lon="6.06949">
        <ele>1605</ele>
        <time>2018-09-05T10:15:00Z</time>
      </trkpt>
      <trkpt lat="45.56828" lon="6.06955">
        <ele>1605</ele>
        <time>2018-09-05T10:15:05Z</time>
      </trkpt>
      <trkpt lat="45.56815" lon="6.06973">
        <ele>1606</ele>
        <time>2018-09-05T10:15:24Z</time>
      </trkpt>
      <trkpt lat="45.56809" lon="6.06976">
        <ele>1607</ele>
        <time>2018-09-05T10:15:32Z</time>
      </trkpt>
      <trkpt lat="45.56804" lon="6.0698">
        <ele>1607</ele>
        <time>2018-09-05T10:15:38Z</time>
      </trkpt>
      <trkpt lat="45.56799" lon="6.06982">
        <ele>1608</ele>
        <time>2018-09-05T10:15:44Z</time>
      </trkpt>
      <trkpt lat="45.56791" lon="6.06989">
        <ele>1607</ele>
        <time>2018-09-05T10:15:54Z</time>
      </trkpt>
      <trkpt lat="45.56788" lon="6.06993">
        <ele>1608</ele>
        <time>2018-09-05T10:15:59Z</time>
      </trkpt>
      <trkpt lat="45.56776" lon="6.07004">
        <ele>1611</ele>
        <time>2018-09-05T10:16:22Z</time>
      </trkpt>
      <trkpt lat="45.56768" lon="6.07006">
        <ele>1612</ele>
        <time>2018-09-05T10:16:35Z</time>
      </trkpt>
      <trkpt lat="45.56763" lon="6.07005">
        <ele>1611</ele>
        <time>2018-09-05T10:16:40Z</time>
      </trkpt>
      <trkpt lat="45.56759" lon="6.07004">
        <ele>1611</ele>
        <time>2018-09-05T10:16:45Z</time>
      </trkpt>
      <trkpt lat="45.56752" lon="6.07004">
        <ele>1613</ele>
        <time>2018-09-05T10:16:54Z</time>
      </trkpt>
      <trkpt lat="45.56747" lon="6.07003">
        <ele>1613</ele>
        <time>2018-09-05T10:16:58Z</time>
      </trkpt>
      <trkpt lat="45.56742" lon="6.07003">
        <ele>1614</ele>
        <time>2018-09-05T10:17:03Z</time>
      </trkpt>
      <trkpt lat="45.56738" lon="6.07003">
        <ele>1613</ele>
        <time>2018-09-05T10:17:08Z</time>
      </trkpt>
      <trkpt lat="45.56728" lon="6.07004">
        <ele>1614</ele>
        <time>2018-09-05T10:17:19Z</time>
      </trkpt>
      <trkpt lat="45.5671" lon="6.07001">
        <ele>1616</ele>
        <time>2018-09-05T10:17:42Z</time>
      </trkpt>
      <trkpt lat="45.56701" lon="6.07002">
        <ele>1618</ele>
        <time>2018-09-05T10:17:54Z</time>
      </trkpt>
      <trkpt lat="45.56686" lon="6.07002">
        <ele>1622</ele>
        <time>2018-09-05T10:18:30Z</time>
      </trkpt>
      <trkpt lat="45.56682" lon="6.06999">
        <ele>1623</ele>
        <time>2018-09-05T10:18:36Z</time>
      </trkpt>
      <trkpt lat="45.56677" lon="6.06991">
        <ele>1627</ele>
        <time>2018-09-05T10:18:48Z</time>
      </trkpt>
      <trkpt lat="45.56674" lon="6.06983">
        <ele>1625</ele>
        <time>2018-09-05T10:19:00Z</time>
      </trkpt>
      <trkpt lat="45.5667" lon="6.06974">
        <ele>1628</ele>
        <time>2018-09-05T10:19:12Z</time>
      </trkpt>
      <trkpt lat="45.56666" lon="6.06969">
        <ele>1629</ele>
        <time>2018-09-05T10:19:54Z</time>
      </trkpt>
      <trkpt lat="45.5666" lon="6.06951">
        <ele>1632</ele>
        <time>2018-09-05T10:20:18Z</time>
      </trkpt>
      <trkpt lat="45.56656" lon="6.06943">
        <ele>1634</ele>
        <time>2018-09-05T10:20:27Z</time>
      </trkpt>
      <trkpt lat="45.56653" lon="6.06929">
        <ele>1635</ele>
        <time>2018-09-05T10:20:39Z</time>
      </trkpt>
      <trkpt lat="45.56652" lon="6.06921">
        <ele>1636</ele>
        <time>2018-09-05T10:20:47Z</time>
      </trkpt>
      <trkpt lat="45.56646" lon="6.06893">
        <ele>1641</ele>
        <time>2018-09-05T10:21:23Z</time>
      </trkpt>
      <trkpt lat="45.56645" lon="6.06882">
        <ele>1642</ele>
        <time>2018-09-05T10:21:35Z</time>
      </trkpt>
      <trkpt lat="45.56645" lon="6.06854">
        <ele>1648</ele>
        <time>2018-09-05T10:22:12Z</time>
      </trkpt>
      <trkpt lat="45.56646" lon="6.06846">
        <ele>1649</ele>
        <time>2018-09-05T10:22:22Z</time>
      </trkpt>
      <trkpt lat="45.56645" lon="6.06823">
        <ele>1659</ele>
        <time>2018-09-05T10:23:16Z</time>
      </trkpt>
      <trkpt lat="45.56642" lon="6.06817">
        <ele>1661</ele>
        <time>2018-09-05T10:23:28Z</time>
      </trkpt>
      <trkpt lat="45.56644" lon="6.06808">
        <ele>1662</ele>
        <time>2018-09-05T10:23:46Z</time>
      </trkpt>
      <trkpt lat="45.56627" lon="6.06791">
        <ele>1666</ele>
        <time>2018-09-05T10:24:22Z</time>
      </trkpt>
      <trkpt lat="45.56623" lon="6.06782">
        <ele>1667</ele>
        <time>2018-09-05T10:24:39Z</time>
      </trkpt>
      <trkpt lat="45.56624" lon="6.06774">
        <ele>1667</ele>
        <time>2018-09-05T10:24:49Z</time>
      </trkpt>
      <trkpt lat="45.56621" lon="6.06764">
        <ele>1668</ele>
        <time>2018-09-05T10:25:00Z</time>
      </trkpt>
      <trkpt lat="45.5662" lon="6.06757">
        <ele>1668</ele>
        <time>2018-09-05T10:25:06Z</time>
      </trkpt>
      <trkpt lat="45.56608" lon="6.06731">
        <ele>1673</ele>
        <time>2018-09-05T10:25:43Z</time>
      </trkpt>
      <trkpt lat="45.56607" lon="6.06733">
        <ele>1677</ele>
        <time>2018-09-05T11:23:46Z</time>
      </trkpt>
      <trkpt lat="45.56621" lon="6.0675">
        <ele>1674</ele>
        <time>2018-09-05T11:24:22Z</time>
      </trkpt>
      <trkpt lat="45.56621" lon="6.06757">
        <ele>1672</ele>
        <time>2018-09-05T11:24:34Z</time>
      </trkpt>
      <trkpt lat="45.56622" lon="6.06764">
        <ele>1671</ele>
        <time>2018-09-05T11:24:39Z</time>
      </trkpt>
      <trkpt lat="45.56625" lon="6.06781">
        <ele>1670</ele>
        <time>2018-09-05T11:24:59Z</time>
      </trkpt>
      <trkpt lat="45.5663" lon="6.06789">
        <ele>1669</ele>
        <time>2018-09-05T11:25:12Z</time>
      </trkpt>
      <trkpt lat="45.56638" lon="6.06796">
        <ele>1670</ele>
        <time>2018-09-05T11:25:24Z</time>
      </trkpt>
      <trkpt lat="45.56644" lon="6.06803">
        <ele>1668</ele>
        <time>2018-09-05T11:25:36Z</time>
      </trkpt>
      <trkpt lat="45.56647" lon="6.06813">
        <ele>1666</ele>
        <time>2018-09-05T11:25:48Z</time>
      </trkpt>
      <trkpt lat="45.56644" lon="6.06822">
        <ele>1663</ele>
        <time>2018-09-05T11:26:18Z</time>
      </trkpt>
      <trkpt lat="45.56647" lon="6.06829">
        <ele>1661</ele>
        <time>2018-09-05T11:26:29Z</time>
      </trkpt>
      <trkpt lat="45.56644" lon="6.06837">
        <ele>1657</ele>
        <time>2018-09-05T11:26:50Z</time>
      </trkpt>
      <trkpt lat="45.56643" lon="6.06856">
        <ele>1653</ele>
        <time>2018-09-05T11:27:14Z</time>
      </trkpt>
      <trkpt lat="45.56644" lon="6.06863">
        <ele>1652</ele>
        <time>2018-09-05T11:27:20Z</time>
      </trkpt>
      <trkpt lat="45.56642" lon="6.06878">
        <ele>1649</ele>
        <time>2018-09-05T11:27:34Z</time>
      </trkpt>
      <trkpt lat="45.56641" lon="6.06884">
        <ele>1648</ele>
        <time>2018-09-05T11:27:40Z</time>
      </trkpt>
      <trkpt lat="45.56637" lon="6.06889">
        <ele>1648</ele>
        <time>2018-09-05T11:27:45Z</time>
      </trkpt>
      <trkpt lat="45.56633" lon="6.06892">
        <ele>1647</ele>
        <time>2018-09-05T11:27:50Z</time>
      </trkpt>
      <trkpt lat="45.56627" lon="6.06893">
        <ele>1646</ele>
        <time>2018-09-05T11:27:58Z</time>
      </trkpt>
      <trkpt lat="45.56623" lon="6.06888">
        <ele>1645</ele>
        <time>2018-09-05T11:28:04Z</time>
      </trkpt>
      <trkpt lat="45.56621" lon="6.06882">
        <ele>1645</ele>
        <time>2018-09-05T11:28:09Z</time>
      </trkpt>
      <trkpt lat="45.56611" lon="6.06868">
        <ele>1641</ele>
        <time>2018-09-05T11:28:49Z</time>
      </trkpt>
      <trkpt lat="45.56608" lon="6.06862">
        <ele>1641</ele>
        <time>2018-09-05T11:28:54Z</time>
      </trkpt>
      <trkpt lat="45.56605" lon="6.06855">
        <ele>1641</ele>
        <time>2018-09-05T11:28:59Z</time>
      </trkpt>
      <trkpt lat="45.56598" lon="6.06846">
        <ele>1641</ele>
        <time>2018-09-05T11:29:07Z</time>
      </trkpt>
      <trkpt lat="45.56592" lon="6.06835">
        <ele>1641</ele>
        <time>2018-09-05T11:29:16Z</time>
      </trkpt>
      <trkpt lat="45.56595" lon="6.06842">
        <ele>1640</ele>
        <time>2018-09-05T11:30:06Z</time>
      </trkpt>
      <trkpt lat="45.56589" lon="6.06861">
        <ele>1634</ele>
        <time>2018-09-05T11:30:25Z</time>
      </trkpt>
      <trkpt lat="45.5658" lon="6.06875">
        <ele>1630</ele>
        <time>2018-09-05T11:30:43Z</time>
      </trkpt>
      <trkpt lat="45.56576" lon="6.06879">
        <ele>1628</ele>
        <time>2018-09-05T11:30:51Z</time>
      </trkpt>
      <trkpt lat="45.5657" lon="6.06879">
        <ele>1625</ele>
        <time>2018-09-05T11:31:01Z</time>
      </trkpt>
      <trkpt lat="45.56564" lon="6.06873">
        <ele>1624</ele>
        <time>2018-09-05T11:31:12Z</time>
      </trkpt>
      <trkpt lat="45.56558" lon="6.0687">
        <ele>1622</ele>
        <time>2018-09-05T11:31:20Z</time>
      </trkpt>
      <trkpt lat="45.56555" lon="6.06875">
        <ele>1621</ele>
        <time>2018-09-05T11:31:26Z</time>
      </trkpt>
      <trkpt lat="45.5655" lon="6.06873">
        <ele>1619</ele>
        <time>2018-09-05T11:31:32Z</time>
      </trkpt>
      <trkpt lat="45.56546" lon="6.06869">
        <ele>1618</ele>
        <time>2018-09-05T11:31:38Z</time>
      </trkpt>
      <trkpt lat="45.56542" lon="6.06876">
        <ele>1615</ele>
        <time>2018-09-05T11:31:46Z</time>
      </trkpt>
      <trkpt lat="45.56536" lon="6.06879">
        <ele>1613</ele>
        <time>2018-09-05T11:31:57Z</time>
      </trkpt>
      <trkpt lat="45.56534" lon="6.06873">
        <ele>1612</ele>
        <time>2018-09-05T11:32:02Z</time>
      </trkpt>
      <trkpt lat="45.56529" lon="6.06866">
        <ele>1610</ele>
        <time>2018-09-05T11:32:10Z</time>
      </trkpt>
      <trkpt lat="45.56516" lon="6.06857">
        <ele>1606</ele>
        <time>2018-09-05T11:32:29Z</time>
      </trkpt>
      <trkpt lat="45.56498" lon="6.06843">
        <ele>1599</ele>
        <time>2018-09-05T11:33:05Z</time>
      </trkpt>
      <trkpt lat="45.56495" lon="6.0684">
        <ele>1598</ele>
        <time>2018-09-05T11:33:09Z</time>
      </trkpt>
      <trkpt lat="45.56481" lon="6.0683">
        <ele>1593</ele>
        <time>2018-09-05T11:33:30Z</time>
      </trkpt>
      <trkpt lat="45.56475" lon="6.06834">
        <ele>1590</ele>
        <time>2018-09-05T11:33:40Z</time>
      </trkpt>
      <trkpt lat="45.56467" lon="6.06831">
        <ele>1587</ele>
        <time>2018-09-05T11:33:50Z</time>
      </trkpt>
      <trkpt lat="45.56461" lon="6.06824">
        <ele>1584</ele>
        <time>2018-09-05T11:34:00Z</time>
      </trkpt>
      <trkpt lat="45.56453" lon="6.06823">
        <ele>1582</ele>
        <time>2018-09-05T11:34:12Z</time>
      </trkpt>
      <trkpt lat="45.56447" lon="6.06822">
        <ele>1580</ele>
        <time>2018-09-05T11:34:24Z</time>
      </trkpt>
      <trkpt lat="45.56445" lon="6.06813">
        <ele>1577</ele>
        <time>2018-09-05T11:34:36Z</time>
      </trkpt>
      <trkpt lat="45.56432" lon="6.06801">
        <ele>1572</ele>
        <time>2018-09-05T11:35:00Z</time>
      </trkpt>
      <trkpt lat="45.56426" lon="6.06795">
        <ele>1569</ele>
        <time>2018-09-05T11:35:12Z</time>
      </trkpt>
      <trkpt lat="45.56412" lon="6.06794">
        <ele>1562</ele>
        <time>2018-09-05T11:35:54Z</time>
      </trkpt>
      <trkpt lat="45.56406" lon="6.0679">
        <ele>1559</ele>
        <time>2018-09-05T11:36:06Z</time>
      </trkpt>
      <trkpt lat="45.56396" lon="6.06791">
        <ele>1557</ele>
        <time>2018-09-05T11:36:17Z</time>
      </trkpt>
      <trkpt lat="45.56392" lon="6.06788">
        <ele>1555</ele>
        <time>2018-09-05T11:36:25Z</time>
      </trkpt>
      <trkpt lat="45.56384" lon="6.06788">
        <ele>1551</ele>
        <time>2018-09-05T11:36:43Z</time>
      </trkpt>
      <trkpt lat="45.5637" lon="6.0679">
        <ele>1544</ele>
        <time>2018-09-05T11:37:07Z</time>
      </trkpt>
      <trkpt lat="45.56358" lon="6.06771">
        <ele>1539</ele>
        <time>2018-09-05T11:37:29Z</time>
      </trkpt>
      <trkpt lat="45.56352" lon="6.06775">
        <ele>1537</ele>
        <time>2018-09-05T11:37:37Z</time>
      </trkpt>
      <trkpt lat="45.56349" lon="6.06769">
        <ele>1535</ele>
        <time>2018-09-05T11:37:43Z</time>
      </trkpt>
      <trkpt lat="45.5635" lon="6.06762">
        <ele>1534</ele>
        <time>2018-09-05T11:37:49Z</time>
      </trkpt>
      <trkpt lat="45.56344" lon="6.0675">
        <ele>1532</ele>
        <time>2018-09-05T11:38:01Z</time>
      </trkpt>
      <trkpt lat="45.56336" lon="6.06742">
        <ele>1529</ele>
        <time>2018-09-05T11:38:12Z</time>
      </trkpt>
      <trkpt lat="45.56331" lon="6.06738">
        <ele>1527</ele>
        <time>2018-09-05T11:38:23Z</time>
      </trkpt>
      <trkpt lat="45.56327" lon="6.06734">
        <ele>1526</ele>
        <time>2018-09-05T11:38:28Z</time>
      </trkpt>
      <trkpt lat="45.56322" lon="6.06738">
        <ele>1524</ele>
        <time>2018-09-05T11:38:37Z</time>
      </trkpt>
      <trkpt lat="45.56317" lon="6.06739">
        <ele>1522</ele>
        <time>2018-09-05T11:38:45Z</time>
      </trkpt>
      <trkpt lat="45.5631" lon="6.06732">
        <ele>1519</ele>
        <time>2018-09-05T11:38:57Z</time>
      </trkpt>
      <trkpt lat="45.56297" lon="6.06717">
        <ele>1515</ele>
        <time>2018-09-05T11:39:17Z</time>
      </trkpt>
      <trkpt lat="45.56297" lon="6.06708">
        <ele>1514</ele>
        <time>2018-09-05T11:39:26Z</time>
      </trkpt>
      <trkpt lat="45.56294" lon="6.06689">
        <ele>1516</ele>
        <time>2018-09-05T11:39:43Z</time>
      </trkpt>
      <trkpt lat="45.56291" lon="6.06684">
        <ele>1516</ele>
        <time>2018-09-05T11:39:48Z</time>
      </trkpt>
      <trkpt lat="45.56285" lon="6.06671">
        <ele>1515</ele>
        <time>2018-09-05T11:39:59Z</time>
      </trkpt>
      <trkpt lat="45.56281" lon="6.06654">
        <ele>1516</ele>
        <time>2018-09-05T11:40:13Z</time>
      </trkpt>
      <trkpt lat="45.5628" lon="6.06647">
        <ele>1517</ele>
        <time>2018-09-05T11:40:18Z</time>
      </trkpt>
      <trkpt lat="45.56278" lon="6.06638">
        <ele>1518</ele>
        <time>2018-09-05T11:40:26Z</time>
      </trkpt>
      <trkpt lat="45.56274" lon="6.06629">
        <ele>1519</ele>
        <time>2018-09-05T11:40:39Z</time>
      </trkpt>
      <trkpt lat="45.56269" lon="6.06621">
        <ele>1518</ele>
        <time>2018-09-05T11:40:47Z</time>
      </trkpt>
      <trkpt lat="45.56267" lon="6.06614">
        <ele>1519</ele>
        <time>2018-09-05T11:40:52Z</time>
      </trkpt>
      <trkpt lat="45.56266" lon="6.06607">
        <ele>1518</ele>
        <time>2018-09-05T11:40:57Z</time>
      </trkpt>
      <trkpt lat="45.5626" lon="6.06602">
        <ele>1517</ele>
        <time>2018-09-05T11:41:08Z</time>
      </trkpt>
      <trkpt lat="45.56235" lon="6.06578">
        <ele>1509</ele>
        <time>2018-09-05T11:41:45Z</time>
      </trkpt>
      <trkpt lat="45.5623" lon="6.06574">
        <ele>1507</ele>
        <time>2018-09-05T11:41:50Z</time>
      </trkpt>
      <trkpt lat="45.56209" lon="6.06566">
        <ele>1499</ele>
        <time>2018-09-05T11:42:22Z</time>
      </trkpt>
      <trkpt lat="45.56197" lon="6.06559">
        <ele>1492</ele>
        <time>2018-09-05T11:42:48Z</time>
      </trkpt>
      <trkpt lat="45.56192" lon="6.06558">
        <ele>1491</ele>
        <time>2018-09-05T11:42:54Z</time>
      </trkpt>
      <trkpt lat="45.56189" lon="6.06565">
        <ele>1488</ele>
        <time>2018-09-05T11:43:06Z</time>
      </trkpt>
      <trkpt lat="45.56183" lon="6.06566">
        <ele>1485</ele>
        <time>2018-09-05T11:43:18Z</time>
      </trkpt>
      <trkpt lat="45.5618" lon="6.06572">
        <ele>1483</ele>
        <time>2018-09-05T11:43:30Z</time>
      </trkpt>
      <trkpt lat="45.56173" lon="6.06575">
        <ele>1479</ele>
        <time>2018-09-05T11:43:42Z</time>
      </trkpt>
      <trkpt lat="45.56168" lon="6.06581">
        <ele>1476</ele>
        <time>2018-09-05T11:43:54Z</time>
      </trkpt>
      <trkpt lat="45.56169" lon="6.0657">
        <ele>1474</ele>
        <time>2018-09-05T11:44:12Z</time>
      </trkpt>
      <trkpt lat="45.56175" lon="6.06558">
        <ele>1472</ele>
        <time>2018-09-05T11:44:22Z</time>
      </trkpt>
      <trkpt lat="45.56176" lon="6.06549">
        <ele>1471</ele>
        <time>2018-09-05T11:44:30Z</time>
      </trkpt>
      <trkpt lat="45.56175" lon="6.06542">
        <ele>1470</ele>
        <time>2018-09-05T11:44:35Z</time>
      </trkpt>
      <trkpt lat="45.56176" lon="6.06535">
        <ele>1469</ele>
        <time>2018-09-05T11:44:40Z</time>
      </trkpt>
      <trkpt lat="45.56178" lon="6.06525">
        <ele>1468</ele>
        <time>2018-09-05T11:44:50Z</time>
      </trkpt>
      <trkpt lat="45.56182" lon="6.06517">
        <ele>1468</ele>
        <time>2018-09-05T11:44:58Z</time>
      </trkpt>
      <trkpt lat="45.56189" lon="6.06508">
        <ele>1466</ele>
        <time>2018-09-05T11:45:09Z</time>
      </trkpt>
      <trkpt lat="45.56194" lon="6.06506">
        <ele>1464</ele>
        <time>2018-09-05T11:45:23Z</time>
      </trkpt>
      <trkpt lat="45.56199" lon="6.06505">
        <ele>1462</ele>
        <time>2018-09-05T11:46:41Z</time>
      </trkpt>
      <trkpt lat="45.5621" lon="6.06496">
        <ele>1459</ele>
        <time>2018-09-05T11:47:22Z</time>
      </trkpt>
      <trkpt lat="45.56215" lon="6.06492">
        <ele>1458</ele>
        <time>2018-09-05T11:47:30Z</time>
      </trkpt>
      <trkpt lat="45.56218" lon="6.06485">
        <ele>1456</ele>
        <time>2018-09-05T11:47:42Z</time>
      </trkpt>
      <trkpt lat="45.56224" lon="6.06477">
        <ele>1455</ele>
        <time>2018-09-05T11:47:54Z</time>
      </trkpt>
      <trkpt lat="45.56231" lon="6.06473">
        <ele>1455</ele>
        <time>2018-09-05T11:48:04Z</time>
      </trkpt>
      <trkpt lat="45.56236" lon="6.06475">
        <ele>1455</ele>
        <time>2018-09-05T11:48:10Z</time>
      </trkpt>
      <trkpt lat="45.56242" lon="6.06476">
        <ele>1456</ele>
        <time>2018-09-05T11:48:22Z</time>
      </trkpt>
      <trkpt lat="45.56251" lon="6.0648">
        <ele>1456</ele>
        <time>2018-09-05T11:48:32Z</time>
      </trkpt>
      <trkpt lat="45.56257" lon="6.06485">
        <ele>1456</ele>
        <time>2018-09-05T11:48:41Z</time>
      </trkpt>
      <trkpt lat="45.56263" lon="6.06487">
        <ele>1455</ele>
        <time>2018-09-05T11:48:53Z</time>
      </trkpt>
      <trkpt lat="45.56268" lon="6.06482">
        <ele>1452</ele>
        <time>2018-09-05T11:49:05Z</time>
      </trkpt>
      <trkpt lat="45.56264" lon="6.06478">
        <ele>1452</ele>
        <time>2018-09-05T11:49:11Z</time>
      </trkpt>
      <trkpt lat="45.5625" lon="6.06469">
        <ele>1446</ele>
        <time>2018-09-05T11:49:35Z</time>
      </trkpt>
      <trkpt lat="45.56247" lon="6.06464">
        <ele>1444</ele>
        <time>2018-09-05T11:49:41Z</time>
      </trkpt>
      <trkpt lat="45.5624" lon="6.06457">
        <ele>1442</ele>
        <time>2018-09-05T11:49:53Z</time>
      </trkpt>
      <trkpt lat="45.56235" lon="6.06448">
        <ele>1440</ele>
        <time>2018-09-05T11:50:05Z</time>
      </trkpt>
      <trkpt lat="45.56241" lon="6.06446">
        <ele>1438</ele>
        <time>2018-09-05T11:50:17Z</time>
      </trkpt>
      <trkpt lat="45.56248" lon="6.0645">
        <ele>1436</ele>
        <time>2018-09-05T11:50:29Z</time>
      </trkpt>
      <trkpt lat="45.5626" lon="6.06448">
        <ele>1429</ele>
        <time>2018-09-05T11:51:11Z</time>
      </trkpt>
      <trkpt lat="45.56268" lon="6.06447">
        <ele>1428</ele>
        <time>2018-09-05T11:51:29Z</time>
      </trkpt>
      <trkpt lat="45.56275" lon="6.06447">
        <ele>1426</ele>
        <time>2018-09-05T11:51:42Z</time>
      </trkpt>
      <trkpt lat="45.5628" lon="6.06445">
        <ele>1424</ele>
        <time>2018-09-05T11:51:50Z</time>
      </trkpt>
      <trkpt lat="45.56288" lon="6.06443">
        <ele>1424</ele>
        <time>2018-09-05T11:52:03Z</time>
      </trkpt>
      <trkpt lat="45.56289" lon="6.06429">
        <ele>1416</ele>
        <time>2018-09-05T11:54:21Z</time>
      </trkpt>
      <trkpt lat="45.56285" lon="6.06424">
        <ele>1415</ele>
        <time>2018-09-05T11:54:27Z</time>
      </trkpt>
      <trkpt lat="45.56291" lon="6.06421">
        <ele>1411</ele>
        <time>2018-09-05T11:54:51Z</time>
      </trkpt>
      <trkpt lat="45.56295" lon="6.0642">
        <ele>1409</ele>
        <time>2018-09-05T11:54:57Z</time>
      </trkpt>
      <trkpt lat="45.56293" lon="6.0641">
        <ele>1406</ele>
        <time>2018-09-05T11:55:12Z</time>
      </trkpt>
      <trkpt lat="45.56289" lon="6.06405">
        <ele>1405</ele>
        <time>2018-09-05T11:55:17Z</time>
      </trkpt>
      <trkpt lat="45.56285" lon="6.06396">
        <ele>1403</ele>
        <time>2018-09-05T11:55:26Z</time>
      </trkpt>
      <trkpt lat="45.5629" lon="6.0639">
        <ele>1398</ele>
        <time>2018-09-05T11:56:02Z</time>
      </trkpt>
      <trkpt lat="45.56288" lon="6.06383">
        <ele>1396</ele>
        <time>2018-09-05T11:56:11Z</time>
      </trkpt>
      <trkpt lat="45.56283" lon="6.0638">
        <ele>1394</ele>
        <time>2018-09-05T11:56:16Z</time>
      </trkpt>
      <trkpt lat="45.56277" lon="6.06379">
        <ele>1394</ele>
        <time>2018-09-05T11:56:20Z</time>
      </trkpt>
      <trkpt lat="45.56273" lon="6.06377">
        <ele>1392</ele>
        <time>2018-09-05T11:56:37Z</time>
      </trkpt>
      <trkpt lat="45.56277" lon="6.0637">
        <ele>1388</ele>
        <time>2018-09-05T11:56:55Z</time>
      </trkpt>
      <trkpt lat="45.56287" lon="6.06368">
        <ele>1385</ele>
        <time>2018-09-05T11:57:09Z</time>
      </trkpt>
      <trkpt lat="45.56288" lon="6.06362">
        <ele>1383</ele>
        <time>2018-09-05T11:57:21Z</time>
      </trkpt>
      <trkpt lat="45.56285" lon="6.06356">
        <ele>1382</ele>
        <time>2018-09-05T11:57:26Z</time>
      </trkpt>
      <trkpt lat="45.56281" lon="6.06342">
        <ele>1377</ele>
        <time>2018-09-05T11:57:57Z</time>
      </trkpt>
      <trkpt lat="45.56287" lon="6.06334">
        <ele>1373</ele>
        <time>2018-09-05T11:58:15Z</time>
      </trkpt>
      <trkpt lat="45.56284" lon="6.06328">
        <ele>1372</ele>
        <time>2018-09-05T11:58:22Z</time>
      </trkpt>
      <trkpt lat="45.56274" lon="6.06327">
        <ele>1370</ele>
        <time>2018-09-05T11:58:33Z</time>
      </trkpt>
      <trkpt lat="45.56275" lon="6.0632">
        <ele>1367</ele>
        <time>2018-09-05T11:58:47Z</time>
      </trkpt>
      <trkpt lat="45.56277" lon="6.06308">
        <ele>1365</ele>
        <time>2018-09-05T11:58:58Z</time>
      </trkpt>
      <trkpt lat="45.56276" lon="6.06297">
        <ele>1362</ele>
        <time>2018-09-05T11:59:12Z</time>
      </trkpt>
      <trkpt lat="45.56278" lon="6.06287">
        <ele>1360</ele>
        <time>2018-09-05T11:59:23Z</time>
      </trkpt>
      <trkpt lat="45.56279" lon="6.06265">
        <ele>1356</ele>
        <time>2018-09-05T11:59:42Z</time>
      </trkpt>
      <trkpt lat="45.56281" lon="6.06258">
        <ele>1355</ele>
        <time>2018-09-05T11:59:47Z</time>
      </trkpt>
      <trkpt lat="45.56283" lon="6.06251">
        <ele>1353</ele>
        <time>2018-09-05T11:59:55Z</time>
      </trkpt>
      <trkpt lat="45.56287" lon="6.06243">
        <ele>1352</ele>
        <time>2018-09-05T12:00:07Z</time>
      </trkpt>
      <trkpt lat="45.56298" lon="6.06242">
        <ele>1350</ele>
        <time>2018-09-05T12:00:18Z</time>
      </trkpt>
      <trkpt lat="45.56312" lon="6.06231">
        <ele>1347</ele>
        <time>2018-09-05T12:00:40Z</time>
      </trkpt>
      <trkpt lat="45.56316" lon="6.06221">
        <ele>1345</ele>
        <time>2018-09-05T12:00:53Z</time>
      </trkpt>
      <trkpt lat="45.56318" lon="6.06206">
        <ele>1343</ele>
        <time>2018-09-05T12:01:04Z</time>
      </trkpt>
      <trkpt lat="45.56322" lon="6.06188">
        <ele>1339</ele>
        <time>2018-09-05T12:01:25Z</time>
      </trkpt>
      <trkpt lat="45.56315" lon="6.06183">
        <ele>1335</ele>
        <time>2018-09-05T12:01:44Z</time>
      </trkpt>
      <trkpt lat="45.56304" lon="6.06191">
        <ele>1332</ele>
        <time>2018-09-05T12:02:10Z</time>
      </trkpt>
      <trkpt lat="45.56303" lon="6.06188">
        <ele>1328</ele>
        <time>2018-09-05T12:02:41Z</time>
      </trkpt>
      <trkpt lat="45.56309" lon="6.0617">
        <ele>1324</ele>
        <time>2018-09-05T12:03:02Z</time>
      </trkpt>
      <trkpt lat="45.56308" lon="6.06162">
        <ele>1323</ele>
        <time>2018-09-05T12:03:08Z</time>
      </trkpt>
      <trkpt lat="45.56309" lon="6.0615">
        <ele>1322</ele>
        <time>2018-09-05T12:03:20Z</time>
      </trkpt>
      <trkpt lat="45.56305" lon="6.06138">
        <ele>1320</ele>
        <time>2018-09-05T12:03:29Z</time>
      </trkpt>
      <trkpt lat="45.56301" lon="6.06132">
        <ele>1317</ele>
        <time>2018-09-05T12:03:37Z</time>
      </trkpt>
      <trkpt lat="45.56299" lon="6.06122">
        <ele>1314</ele>
        <time>2018-09-05T12:03:49Z</time>
      </trkpt>
      <trkpt lat="45.56294" lon="6.0612">
        <ele>1313</ele>
        <time>2018-09-05T12:03:55Z</time>
      </trkpt>
      <trkpt lat="45.5628" lon="6.06135">
        <ele>1306</ele>
        <time>2018-09-05T12:04:24Z</time>
      </trkpt>
      <trkpt lat="45.56276" lon="6.06124">
        <ele>1302</ele>
        <time>2018-09-05T12:04:42Z</time>
      </trkpt>
      <trkpt lat="45.5627" lon="6.06128">
        <ele>1299</ele>
        <time>2018-09-05T12:05:00Z</time>
      </trkpt>
      <trkpt lat="45.56265" lon="6.06133">
        <ele>1296</ele>
        <time>2018-09-05T12:05:12Z</time>
      </trkpt>
      <trkpt lat="45.56261" lon="6.06126">
        <ele>1294</ele>
        <time>2018-09-05T12:05:24Z</time>
      </trkpt>
      <trkpt lat="45.56257" lon="6.06112">
        <ele>1291</ele>
        <time>2018-09-05T12:05:42Z</time>
      </trkpt>
      <trkpt lat="45.56254" lon="6.06119">
        <ele>1288</ele>
        <time>2018-09-05T12:06:02Z</time>
      </trkpt>
      <trkpt lat="45.56246" lon="6.06122">
        <ele>1286</ele>
        <time>2018-09-05T12:06:14Z</time>
      </trkpt>
      <trkpt lat="45.56248" lon="6.06115">
        <ele>1282</ele>
        <time>2018-09-05T12:06:44Z</time>
      </trkpt>
      <trkpt lat="45.56243" lon="6.06105">
        <ele>1280</ele>
        <time>2018-09-05T12:06:56Z</time>
      </trkpt>
      <trkpt lat="45.56239" lon="6.061">
        <ele>1277</ele>
        <time>2018-09-05T12:07:08Z</time>
      </trkpt>
      <trkpt lat="45.56243" lon="6.0609">
        <ele>1275</ele>
        <time>2018-09-05T12:07:26Z</time>
      </trkpt>
      <trkpt lat="45.5624" lon="6.06066">
        <ele>1271</ele>
        <time>2018-09-05T12:07:49Z</time>
      </trkpt>
      <trkpt lat="45.56239" lon="6.06054">
        <ele>1268</ele>
        <time>2018-09-05T12:08:00Z</time>
      </trkpt>
      <trkpt lat="45.56235" lon="6.0605">
        <ele>1266</ele>
        <time>2018-09-05T12:08:10Z</time>
      </trkpt>
      <trkpt lat="45.56225" lon="6.06053">
        <ele>1262</ele>
        <time>2018-09-05T12:08:29Z</time>
      </trkpt>
      <trkpt lat="45.56225" lon="6.06045">
        <ele>1257</ele>
        <time>2018-09-05T12:08:54Z</time>
      </trkpt>
      <trkpt lat="45.56226" lon="6.06036">
        <ele>1255</ele>
        <time>2018-09-05T12:09:06Z</time>
      </trkpt>
      <trkpt lat="45.56225" lon="6.06029">
        <ele>1252</ele>
        <time>2018-09-05T12:09:18Z</time>
      </trkpt>
      <trkpt lat="45.56225" lon="6.06019">
        <ele>1250</ele>
        <time>2018-09-05T12:09:30Z</time>
      </trkpt>
      <trkpt lat="45.56228" lon="6.06012">
        <ele>1248</ele>
        <time>2018-09-05T12:09:40Z</time>
      </trkpt>
      <trkpt lat="45.56229" lon="6.06">
        <ele>1246</ele>
        <time>2018-09-05T12:09:50Z</time>
      </trkpt>
      <trkpt lat="45.56232" lon="6.05994">
        <ele>1245</ele>
        <time>2018-09-05T12:09:57Z</time>
      </trkpt>
      <trkpt lat="45.56234" lon="6.05986">
        <ele>1243</ele>
        <time>2018-09-05T12:10:07Z</time>
      </trkpt>
      <trkpt lat="45.56233" lon="6.0598">
        <ele>1242</ele>
        <time>2018-09-05T12:10:13Z</time>
      </trkpt>
      <trkpt lat="45.56236" lon="6.05969">
        <ele>1239</ele>
        <time>2018-09-05T12:10:25Z</time>
      </trkpt>
      <trkpt lat="45.56236" lon="6.05953">
        <ele>1234</ele>
        <time>2018-09-05T12:10:49Z</time>
      </trkpt>
      <trkpt lat="45.56236" lon="6.05945">
        <ele>1231</ele>
        <time>2018-09-05T12:11:37Z</time>
      </trkpt>
      <trkpt lat="45.56246" lon="6.05927">
        <ele>1226</ele>
        <time>2018-09-05T12:12:01Z</time>
      </trkpt>
      <trkpt lat="45.56252" lon="6.05924">
        <ele>1225</ele>
        <time>2018-09-05T12:12:09Z</time>
      </trkpt>
      <trkpt lat="45.56258" lon="6.05918">
        <ele>1222</ele>
        <time>2018-09-05T12:12:21Z</time>
      </trkpt>
      <trkpt lat="45.56265" lon="6.05912">
        <ele>1220</ele>
        <time>2018-09-05T12:12:33Z</time>
      </trkpt>
      <trkpt lat="45.56276" lon="6.05916">
        <ele>1216</ele>
        <time>2018-09-05T12:12:57Z</time>
      </trkpt>
      <trkpt lat="45.56282" lon="6.05921">
        <ele>1217</ele>
        <time>2018-09-05T12:13:15Z</time>
      </trkpt>
      <trkpt lat="45.56286" lon="6.05926">
        <ele>1216</ele>
        <time>2018-09-05T12:13:19Z</time>
      </trkpt>
      <trkpt lat="45.56293" lon="6.05944">
        <ele>1219</ele>
        <time>2018-09-05T12:13:38Z</time>
      </trkpt>
      <trkpt lat="45.563" lon="6.05948">
        <ele>1221</ele>
        <time>2018-09-05T12:13:45Z</time>
      </trkpt>
      <trkpt lat="45.56305" lon="6.05955">
        <ele>1222</ele>
        <time>2018-09-05T12:13:52Z</time>
      </trkpt>
      <trkpt lat="45.56313" lon="6.05962">
        <ele>1222</ele>
        <time>2018-09-05T12:13:58Z</time>
      </trkpt>
      <trkpt lat="45.56316" lon="6.05966">
        <ele>1224</ele>
        <time>2018-09-05T12:14:04Z</time>
      </trkpt>
      <trkpt lat="45.56328" lon="6.05966">
        <ele>1225</ele>
        <time>2018-09-05T12:14:22Z</time>
      </trkpt>
      <trkpt lat="45.5633" lon="6.05951">
        <ele>1228</ele>
        <time>2018-09-05T12:14:37Z</time>
      </trkpt>
      <trkpt lat="45.56339" lon="6.05951">
        <ele>1231</ele>
        <time>2018-09-05T12:14:45Z</time>
      </trkpt>
      <trkpt lat="45.56343" lon="6.05952">
        <ele>1232</ele>
        <time>2018-09-05T12:14:53Z</time>
      </trkpt>
      <trkpt lat="45.56349" lon="6.05957">
        <ele>1229</ele>
        <time>2018-09-05T12:15:00Z</time>
      </trkpt>
      <trkpt lat="45.56361" lon="6.05973">
        <ele>1234</ele>
        <time>2018-09-05T12:15:15Z</time>
      </trkpt>
      <trkpt lat="45.56363" lon="6.05978">
        <ele>1235</ele>
        <time>2018-09-05T12:15:29Z</time>
      </trkpt>
      <trkpt lat="45.56399" lon="6.05991">
        <ele>1242</ele>
        <time>2018-09-05T12:16:16Z</time>
      </trkpt>
      <trkpt lat="45.56417" lon="6.05982">
        <ele>1247</ele>
        <time>2018-09-05T12:16:52Z</time>
      </trkpt>
      <trkpt lat="45.56427" lon="6.0598">
        <ele>1248</ele>
        <time>2018-09-05T12:17:07Z</time>
      </trkpt>
      <trkpt lat="45.56446" lon="6.05965">
        <ele>1252</ele>
        <time>2018-09-05T12:17:41Z</time>
      </trkpt>
      <trkpt lat="45.56449" lon="6.0596">
        <ele>1255</ele>
        <time>2018-09-05T12:17:48Z</time>
      </trkpt>
      <trkpt lat="45.56456" lon="6.05957">
        <ele>1256</ele>
        <time>2018-09-05T12:18:00Z</time>
      </trkpt>
      <trkpt lat="45.56461" lon="6.05958">
        <ele>1256</ele>
        <time>2018-09-05T12:18:06Z</time>
      </trkpt>
      <trkpt lat="45.56467" lon="6.05955">
        <ele>1254</ele>
        <time>2018-09-05T12:18:13Z</time>
      </trkpt>
      <trkpt lat="45.56475" lon="6.05944">
        <ele>1258</ele>
        <time>2018-09-05T12:18:27Z</time>
      </trkpt>
      <trkpt lat="45.56483" lon="6.05943">
        <ele>1260</ele>
        <time>2018-09-05T12:18:38Z</time>
      </trkpt>
      <trkpt lat="45.5649" lon="6.05936">
        <ele>1262</ele>
        <time>2018-09-05T12:18:51Z</time>
      </trkpt>
      <trkpt lat="45.56493" lon="6.05931">
        <ele>1262</ele>
        <time>2018-09-05T12:18:56Z</time>
      </trkpt>
      <trkpt lat="45.56503" lon="6.05925">
        <ele>1264</ele>
        <time>2018-09-05T12:19:11Z</time>
      </trkpt>
      <trkpt lat="45.56512" lon="6.05926">
        <ele>1266</ele>
        <time>2018-09-05T12:19:20Z</time>
      </trkpt>
      <trkpt lat="45.56519" lon="6.05919">
        <ele>1269</ele>
        <time>2018-09-05T12:19:31Z</time>
      </trkpt>
      <trkpt lat="45.56525" lon="6.05913">
        <ele>1266</ele>
        <time>2018-09-05T12:19:43Z</time>
      </trkpt>
      <trkpt lat="45.56531" lon="6.05906">
        <ele>1269</ele>
        <time>2018-09-05T12:19:55Z</time>
      </trkpt>
      <trkpt lat="45.56544" lon="6.05905">
        <ele>1274</ele>
        <time>2018-09-05T12:20:18Z</time>
      </trkpt>
      <trkpt lat="45.56555" lon="6.05912">
        <ele>1274</ele>
        <time>2018-09-05T12:20:27Z</time>
      </trkpt>
      <trkpt lat="45.56561" lon="6.05904">
        <ele>1278</ele>
        <time>2018-09-05T12:20:42Z</time>
      </trkpt>
      <trkpt lat="45.56582" lon="6.05886">
        <ele>1282</ele>
        <time>2018-09-05T12:21:15Z</time>
      </trkpt>
      <trkpt lat="45.56587" lon="6.05884">
        <ele>1283</ele>
        <time>2018-09-05T12:21:27Z</time>
      </trkpt>
      <trkpt lat="45.5659" lon="6.05879">
        <ele>1284</ele>
        <time>2018-09-05T12:21:32Z</time>
      </trkpt>
      <trkpt lat="45.56594" lon="6.05872">
        <ele>1285</ele>
        <time>2018-09-05T12:21:41Z</time>
      </trkpt>
      <trkpt lat="45.56599" lon="6.05864">
        <ele>1285</ele>
        <time>2018-09-05T12:21:51Z</time>
      </trkpt>
      <trkpt lat="45.56613" lon="6.05845">
        <ele>1287</ele>
        <time>2018-09-05T12:22:11Z</time>
      </trkpt>
      <trkpt lat="45.56623" lon="6.0584">
        <ele>1288</ele>
        <time>2018-09-05T12:22:24Z</time>
      </trkpt>
      <trkpt lat="45.56627" lon="6.05841">
        <ele>1289</ele>
        <time>2018-09-05T12:22:29Z</time>
      </trkpt>
      <trkpt lat="45.56632" lon="6.05843">
        <ele>1290</ele>
        <time>2018-09-05T12:22:37Z</time>
      </trkpt>
      <trkpt lat="45.5664" lon="6.05843">
        <ele>1292</ele>
        <time>2018-09-05T12:22:49Z</time>
      </trkpt>
      <trkpt lat="45.56644" lon="6.05846">
        <ele>1291</ele>
        <time>2018-09-05T12:22:54Z</time>
      </trkpt>
      <trkpt lat="45.56648" lon="6.05849">
        <ele>1291</ele>
        <time>2018-09-05T12:22:59Z</time>
      </trkpt>
      <trkpt lat="45.5667" lon="6.05862">
        <ele>1298</ele>
        <time>2018-09-05T12:23:35Z</time>
      </trkpt>
      <trkpt lat="45.56674" lon="6.05866">
        <ele>1299</ele>
        <time>2018-09-05T12:23:47Z</time>
      </trkpt>
      <trkpt lat="45.56686" lon="6.05866">
        <ele>1300</ele>
        <time>2018-09-05T12:24:03Z</time>
      </trkpt>
      <trkpt lat="45.56695" lon="6.05861">
        <ele>1301</ele>
        <time>2018-09-05T12:24:14Z</time>
      </trkpt>
      <trkpt lat="45.56699" lon="6.05863">
        <ele>1301</ele>
        <time>2018-09-05T12:24:17Z</time>
      </trkpt>
      <trkpt lat="45.56708" lon="6.05862">
        <ele>1302</ele>
        <time>2018-09-05T12:24:27Z</time>
      </trkpt>
      <trkpt lat="45.56724" lon="6.05861">
        <ele>1305</ele>
        <time>2018-09-05T12:24:53Z</time>
      </trkpt>
      <trkpt lat="45.56734" lon="6.05859">
        <ele>1306</ele>
        <time>2018-09-05T12:25:05Z</time>
      </trkpt>
      <trkpt lat="45.56748" lon="6.05865">
        <ele>1308</ele>
        <time>2018-09-05T12:25:24Z</time>
      </trkpt>
      <trkpt lat="45.56757" lon="6.05868">
        <ele>1309</ele>
        <time>2018-09-05T12:25:35Z</time>
      </trkpt>
      <trkpt lat="45.56763" lon="6.0587">
        <ele>1311</ele>
        <time>2018-09-05T12:25:43Z</time>
      </trkpt>
      <trkpt lat="45.56772" lon="6.0587">
        <ele>1309</ele>
        <time>2018-09-05T12:25:53Z</time>
      </trkpt>
      <trkpt lat="45.56778" lon="6.05866">
        <ele>1309</ele>
        <time>2018-09-05T12:26:01Z</time>
      </trkpt>
      <trkpt lat="45.56782" lon="6.05862">
        <ele>1308</ele>
        <time>2018-09-05T12:26:06Z</time>
      </trkpt>
      <trkpt lat="45.56788" lon="6.0586">
        <ele>1308</ele>
        <time>2018-09-05T12:26:15Z</time>
      </trkpt>
      <trkpt lat="45.56794" lon="6.05865">
        <ele>1307</ele>
        <time>2018-09-05T12:26:37Z</time>
      </trkpt>
      <trkpt lat="45.56801" lon="6.05874">
        <ele>1308</ele>
        <time>2018-09-05T12:26:47Z</time>
      </trkpt>
      <trkpt lat="45.56805" lon="6.05879">
        <ele>1307</ele>
        <time>2018-09-05T12:26:52Z</time>
      </trkpt>
      <trkpt lat="45.56809" lon="6.05883">
        <ele>1307</ele>
        <time>2018-09-05T12:26:57Z</time>
      </trkpt>
      <trkpt lat="45.56815" lon="6.05892">
        <ele>1305</ele>
        <time>2018-09-05T12:27:07Z</time>
      </trkpt>
      <trkpt lat="45.56819" lon="6.05896">
        <ele>1305</ele>
        <time>2018-09-05T12:27:11Z</time>
      </trkpt>
      <trkpt lat="45.56824" lon="6.059">
        <ele>1303</ele>
        <time>2018-09-05T12:27:19Z</time>
      </trkpt>
      <trkpt lat="45.56833" lon="6.05918">
        <ele>1300</ele>
        <time>2018-09-05T12:27:38Z</time>
      </trkpt>
      <trkpt lat="45.56836" lon="6.05923">
        <ele>1299</ele>
        <time>2018-09-05T12:27:43Z</time>
      </trkpt>
      <trkpt lat="45.5684" lon="6.05928">
        <ele>1298</ele>
        <time>2018-09-05T12:27:51Z</time>
      </trkpt>
      <trkpt lat="45.56845" lon="6.05931">
        <ele>1297</ele>
        <time>2018-09-05T12:27:56Z</time>
      </trkpt>
      <trkpt lat="45.56848" lon="6.05937">
        <ele>1297</ele>
        <time>2018-09-05T12:28:01Z</time>
      </trkpt>
      <trkpt lat="45.56853" lon="6.05939">
        <ele>1296</ele>
        <time>2018-09-05T12:28:05Z</time>
      </trkpt>
      <trkpt lat="45.56866" lon="6.05955">
        <ele>1294</ele>
        <time>2018-09-05T12:28:21Z</time>
      </trkpt>
      <trkpt lat="45.5687" lon="6.05957">
        <ele>1293</ele>
        <time>2018-09-05T12:28:26Z</time>
      </trkpt>
      <trkpt lat="45.56879" lon="6.05962">
        <ele>1292</ele>
        <time>2018-09-05T12:28:35Z</time>
      </trkpt>
      <trkpt lat="45.56882" lon="6.05969">
        <ele>1291</ele>
        <time>2018-09-05T12:28:42Z</time>
      </trkpt>
      <trkpt lat="45.56897" lon="6.05981">
        <ele>1288</ele>
        <time>2018-09-05T12:28:58Z</time>
      </trkpt>
      <trkpt lat="45.56906" lon="6.05992">
        <ele>1286</ele>
        <time>2018-09-05T12:29:12Z</time>
      </trkpt>
      <trkpt lat="45.56909" lon="6.05998">
        <ele>1285</ele>
        <time>2018-09-05T12:29:17Z</time>
      </trkpt>
      <trkpt lat="45.56912" lon="6.06003">
        <ele>1285</ele>
        <time>2018-09-05T12:29:22Z</time>
      </trkpt>
      <trkpt lat="45.56916" lon="6.06005">
        <ele>1284</ele>
        <time>2018-09-05T12:29:27Z</time>
      </trkpt>
      <trkpt lat="45.56919" lon="6.06013">
        <ele>1283</ele>
        <time>2018-09-05T12:29:34Z</time>
      </trkpt>
      <trkpt lat="45.56919" lon="6.06021">
        <ele>1282</ele>
        <time>2018-09-05T12:29:42Z</time>
      </trkpt>
      <trkpt lat="45.56923" lon="6.06025">
        <ele>1281</ele>
        <time>2018-09-05T12:29:47Z</time>
      </trkpt>
      <trkpt lat="45.56929" lon="6.06038">
        <ele>1280</ele>
        <time>2018-09-05T12:30:01Z</time>
      </trkpt>
      <trkpt lat="45.56946" lon="6.06052">
        <ele>1278</ele>
        <time>2018-09-05T12:30:20Z</time>
      </trkpt>
      <trkpt lat="45.56948" lon="6.0606">
        <ele>1276</ele>
        <time>2018-09-05T12:30:27Z</time>
      </trkpt>
      <trkpt lat="45.56953" lon="6.06065">
        <ele>1276</ele>
        <time>2018-09-05T12:30:36Z</time>
      </trkpt>
      <trkpt lat="45.56959" lon="6.0607">
        <ele>1276</ele>
        <time>2018-09-05T12:30:48Z</time>
      </trkpt>
      <trkpt lat="45.56963" lon="6.06074">
        <ele>1275</ele>
        <time>2018-09-05T12:30:54Z</time>
      </trkpt>
      <trkpt lat="45.56965" lon="6.06083">
        <ele>1273</ele>
        <time>2018-09-05T12:31:02Z</time>
      </trkpt>
      <trkpt lat="45.56984" lon="6.06104">
        <ele>1270</ele>
        <time>2018-09-05T12:31:32Z</time>
      </trkpt>
      <trkpt lat="45.56986" lon="6.0611">
        <ele>1269</ele>
        <time>2018-09-05T12:31:37Z</time>
      </trkpt>
      <trkpt lat="45.56989" lon="6.06115">
        <ele>1269</ele>
        <time>2018-09-05T12:31:42Z</time>
      </trkpt>
      <trkpt lat="45.57001" lon="6.06125">
        <ele>1267</ele>
        <time>2018-09-05T12:31:57Z</time>
      </trkpt>
      <trkpt lat="45.57007" lon="6.06126">
        <ele>1267</ele>
        <time>2018-09-05T12:32:04Z</time>
      </trkpt>
      <trkpt lat="45.57011" lon="6.06129">
        <ele>1267</ele>
        <time>2018-09-05T12:32:08Z</time>
      </trkpt>
      <trkpt lat="45.57016" lon="6.06128">
        <ele>1267</ele>
        <time>2018-09-05T12:32:13Z</time>
      </trkpt>
      <trkpt lat="45.5702" lon="6.0613">
        <ele>1267</ele>
        <time>2018-09-05T12:32:17Z</time>
      </trkpt>
      <trkpt lat="45.5703" lon="6.06131">
        <ele>1266</ele>
        <time>2018-09-05T12:32:26Z</time>
      </trkpt>
      <trkpt lat="45.57042" lon="6.06153">
        <ele>1263</ele>
        <time>2018-09-05T12:32:46Z</time>
      </trkpt>
      <trkpt lat="45.57047" lon="6.06154">
        <ele>1262</ele>
        <time>2018-09-05T12:32:51Z</time>
      </trkpt>
      <trkpt lat="45.57056" lon="6.06161">
        <ele>1261</ele>
        <time>2018-09-05T12:32:59Z</time>
      </trkpt>
      <trkpt lat="45.5706" lon="6.06166">
        <ele>1261</ele>
        <time>2018-09-05T12:33:03Z</time>
      </trkpt>
      <trkpt lat="45.57064" lon="6.0617">
        <ele>1260</ele>
        <time>2018-09-05T12:33:08Z</time>
      </trkpt>
      <trkpt lat="45.57078" lon="6.06198">
        <ele>1257</ele>
        <time>2018-09-05T12:33:33Z</time>
      </trkpt>
      <trkpt lat="45.57082" lon="6.06202">
        <ele>1256</ele>
        <time>2018-09-05T12:33:38Z</time>
      </trkpt>
      <trkpt lat="45.57088" lon="6.06205">
        <ele>1255</ele>
        <time>2018-09-05T12:33:45Z</time>
      </trkpt>
      <trkpt lat="45.57091" lon="6.06209">
        <ele>1255</ele>
        <time>2018-09-05T12:33:50Z</time>
      </trkpt>
      <trkpt lat="45.57096" lon="6.06217">
        <ele>1253</ele>
        <time>2018-09-05T12:33:58Z</time>
      </trkpt>
      <trkpt lat="45.57098" lon="6.06223">
        <ele>1253</ele>
        <time>2018-09-05T12:34:03Z</time>
      </trkpt>
      <trkpt lat="45.57104" lon="6.06246">
        <ele>1250</ele>
        <time>2018-09-05T12:34:21Z</time>
      </trkpt>
      <trkpt lat="45.57107" lon="6.06251">
        <ele>1249</ele>
        <time>2018-09-05T12:34:26Z</time>
      </trkpt>
      <trkpt lat="45.57109" lon="6.06257">
        <ele>1249</ele>
        <time>2018-09-05T12:34:31Z</time>
      </trkpt>
      <trkpt lat="45.57109" lon="6.06265">
        <ele>1248</ele>
        <time>2018-09-05T12:34:36Z</time>
      </trkpt>
      <trkpt lat="45.5711" lon="6.06274">
        <ele>1247</ele>
        <time>2018-09-05T12:34:47Z</time>
      </trkpt>
      <trkpt lat="45.57116" lon="6.06265">
        <ele>1245</ele>
        <time>2018-09-05T12:35:40Z</time>
      </trkpt>
      <trkpt lat="45.57119" lon="6.0626">
        <ele>1245</ele>
        <time>2018-09-05T12:35:45Z</time>
      </trkpt>
      <trkpt lat="45.57126" lon="6.06255">
        <ele>1241</ele>
        <time>2018-09-05T12:35:50Z</time>
      </trkpt>
      <trkpt lat="45.57129" lon="6.06248">
        <ele>1242</ele>
        <time>2018-09-05T12:36:00Z</time>
      </trkpt>
      <trkpt lat="45.57134" lon="6.06244">
        <ele>1239</ele>
        <time>2018-09-05T12:36:48Z</time>
      </trkpt>
      <trkpt lat="45.57138" lon="6.0625">
        <ele>1235</ele>
        <time>2018-09-05T12:37:05Z</time>
      </trkpt>
      <trkpt lat="45.57144" lon="6.06252">
        <ele>1234</ele>
        <time>2018-09-05T12:37:12Z</time>
      </trkpt>
      <trkpt lat="45.57151" lon="6.06251">
        <ele>1232</ele>
        <time>2018-09-05T12:37:20Z</time>
      </trkpt>
      <trkpt lat="45.57155" lon="6.06249">
        <ele>1230</ele>
        <time>2018-09-05T12:37:34Z</time>
      </trkpt>
      <trkpt lat="45.57161" lon="6.06251">
        <ele>1229</ele>
        <time>2018-09-05T12:37:46Z</time>
      </trkpt>
      <trkpt lat="45.57176" lon="6.06261">
        <ele>1225</ele>
        <time>2018-09-05T12:38:06Z</time>
      </trkpt>
      <trkpt lat="45.57193" lon="6.06267">
        <ele>1221</ele>
        <time>2018-09-05T12:38:28Z</time>
      </trkpt>
      <trkpt lat="45.57199" lon="6.06271">
        <ele>1219</ele>
        <time>2018-09-05T12:38:38Z</time>
      </trkpt>
      <trkpt lat="45.57209" lon="6.06281">
        <ele>1215</ele>
        <time>2018-09-05T12:39:00Z</time>
      </trkpt>
      <trkpt lat="45.57214" lon="6.06281">
        <ele>1213</ele>
        <time>2018-09-05T12:39:12Z</time>
      </trkpt>
      <trkpt lat="45.57228" lon="6.06292">
        <ele>1211</ele>
        <time>2018-09-05T12:39:35Z</time>
      </trkpt>
      <trkpt lat="45.57249" lon="6.06288">
        <ele>1209</ele>
        <time>2018-09-05T12:40:02Z</time>
      </trkpt>
      <trkpt lat="45.57254" lon="6.06288">
        <ele>1209</ele>
        <time>2018-09-05T12:40:07Z</time>
      </trkpt>
      <trkpt lat="45.57265" lon="6.06297">
        <ele>1208</ele>
        <time>2018-09-05T12:40:17Z</time>
      </trkpt>
      <trkpt lat="45.57278" lon="6.06309">
        <ele>1207</ele>
        <time>2018-09-05T12:40:31Z</time>
      </trkpt>
      <trkpt lat="45.57304" lon="6.0632">
        <ele>1202</ele>
        <time>2018-09-05T12:41:05Z</time>
      </trkpt>
      <trkpt lat="45.57314" lon="6.06324">
        <ele>1200</ele>
        <time>2018-09-05T12:41:19Z</time>
      </trkpt>
      <trkpt lat="45.57327" lon="6.06325">
        <ele>1195</ele>
        <time>2018-09-05T12:41:40Z</time>
      </trkpt>
      <trkpt lat="45.57347" lon="6.06337">
        <ele>1191</ele>
        <time>2018-09-05T12:42:11Z</time>
      </trkpt>
      <trkpt lat="45.57361" lon="6.06346">
        <ele>1189</ele>
        <time>2018-09-05T12:42:26Z</time>
      </trkpt>
      <trkpt lat="45.57379" lon="6.06364">
        <ele>1188</ele>
        <time>2018-09-05T12:42:47Z</time>
      </trkpt>
      <trkpt lat="45.57386" lon="6.06383">
        <ele>1186</ele>
        <time>2018-09-05T12:43:01Z</time>
      </trkpt>
      <trkpt lat="45.57387" lon="6.06392">
        <ele>1184</ele>
        <time>2018-09-05T12:43:08Z</time>
      </trkpt>
      <trkpt lat="45.57387" lon="6.06401">
        <ele>1183</ele>
        <time>2018-09-05T12:43:16Z</time>
      </trkpt>
      <trkpt lat="45.57392" lon="6.06403">
        <ele>1182</ele>
        <time>2018-09-05T12:43:21Z</time>
      </trkpt>
      <trkpt lat="45.57396" lon="6.06408">
        <ele>1176</ele>
        <time>2018-09-05T12:43:34Z</time>
      </trkpt>
      <trkpt lat="45.57399" lon="6.06415">
        <ele>1178</ele>
        <time>2018-09-05T12:43:46Z</time>
      </trkpt>
      <trkpt lat="45.57405" lon="6.06419">
        <ele>1176</ele>
        <time>2018-09-05T12:43:58Z</time>
      </trkpt>
      <trkpt lat="45.57409" lon="6.06423">
        <ele>1175</ele>
        <time>2018-09-05T12:44:10Z</time>
      </trkpt>
      <trkpt lat="45.57413" lon="6.06427">
        <ele>1175</ele>
        <time>2018-09-05T12:44:14Z</time>
      </trkpt>
      <trkpt lat="45.57418" lon="6.06429">
        <ele>1175</ele>
        <time>2018-09-05T12:44:19Z</time>
      </trkpt>
      <trkpt lat="45.57423" lon="6.06433">
        <ele>1171</ele>
        <time>2018-09-05T12:44:27Z</time>
      </trkpt>
      <trkpt lat="45.57427" lon="6.06439">
        <ele>1171</ele>
        <time>2018-09-05T12:44:32Z</time>
      </trkpt>
      <trkpt lat="45.5743" lon="6.06445">
        <ele>1170</ele>
        <time>2018-09-05T12:44:37Z</time>
      </trkpt>
      <trkpt lat="45.57435" lon="6.06449">
        <ele>1169</ele>
        <time>2018-09-05T12:44:42Z</time>
      </trkpt>
      <trkpt lat="45.5744" lon="6.06451">
        <ele>1169</ele>
        <time>2018-09-05T12:44:47Z</time>
      </trkpt>
      <trkpt lat="45.57445" lon="6.06448">
        <ele>1168</ele>
        <time>2018-09-05T12:44:52Z</time>
      </trkpt>
      <trkpt lat="45.57451" lon="6.06448">
        <ele>1168</ele>
        <time>2018-09-05T12:44:56Z</time>
      </trkpt>
      <trkpt lat="45.57459" lon="6.06457">
        <ele>1167</ele>
        <time>2018-09-05T12:45:04Z</time>
      </trkpt>
      <trkpt lat="45.57463" lon="6.0646">
        <ele>1166</ele>
        <time>2018-09-05T12:45:08Z</time>
      </trkpt>
      <trkpt lat="45.57478" lon="6.06468">
        <ele>1166</ele>
        <time>2018-09-05T12:45:24Z</time>
      </trkpt>
      <trkpt lat="45.57482" lon="6.0647">
        <ele>1165</ele>
        <time>2018-09-05T12:45:28Z</time>
      </trkpt>
      <trkpt lat="45.57486" lon="6.06473">
        <ele>1165</ele>
        <time>2018-09-05T12:45:33Z</time>
      </trkpt>
      <trkpt lat="45.57498" lon="6.0649">
        <ele>1162</ele>
        <time>2018-09-05T12:45:52Z</time>
      </trkpt>
      <trkpt lat="45.57514" lon="6.06499">
        <ele>1159</ele>
        <time>2018-09-05T12:46:17Z</time>
      </trkpt>
      <trkpt lat="45.57523" lon="6.06503">
        <ele>1158</ele>
        <time>2018-09-05T12:46:30Z</time>
      </trkpt>
      <trkpt lat="45.57529" lon="6.06507">
        <ele>1158</ele>
        <time>2018-09-05T12:46:37Z</time>
      </trkpt>
      <trkpt lat="45.57541" lon="6.06515">
        <ele>1157</ele>
        <time>2018-09-05T12:46:50Z</time>
      </trkpt>
      <trkpt lat="45.57546" lon="6.06516">
        <ele>1157</ele>
        <time>2018-09-05T12:46:55Z</time>
      </trkpt>
      <trkpt lat="45.57549" lon="6.0652">
        <ele>1156</ele>
        <time>2018-09-05T12:47:02Z</time>
      </trkpt>
      <trkpt lat="45.57554" lon="6.06524">
        <ele>1156</ele>
        <time>2018-09-05T12:47:06Z</time>
      </trkpt>
      <trkpt lat="45.57558" lon="6.06527">
        <ele>1157</ele>
        <time>2018-09-05T12:47:10Z</time>
      </trkpt>
      <trkpt lat="45.57562" lon="6.06532">
        <ele>1157</ele>
        <time>2018-09-05T12:47:15Z</time>
      </trkpt>
      <trkpt lat="45.57568" lon="6.06538">
        <ele>1157</ele>
        <time>2018-09-05T12:47:22Z</time>
      </trkpt>
      <trkpt lat="45.57577" lon="6.06548">
        <ele>1158</ele>
        <time>2018-09-05T12:47:36Z</time>
      </trkpt>
      <trkpt lat="45.57587" lon="6.06553">
        <ele>1161</ele>
        <time>2018-09-05T12:47:45Z</time>
      </trkpt>
      <trkpt lat="45.57592" lon="6.06554">
        <ele>1160</ele>
        <time>2018-09-05T12:47:49Z</time>
      </trkpt>
      <trkpt lat="45.57597" lon="6.06555">
        <ele>1161</ele>
        <time>2018-09-05T12:47:53Z</time>
      </trkpt>
      <trkpt lat="45.57601" lon="6.06556">
        <ele>1154</ele>
        <time>2018-09-05T12:48:18Z</time>
      </trkpt>
      <trkpt lat="45.57608" lon="6.06562">
        <ele>1160</ele>
        <time>2018-09-05T12:49:12Z</time>
      </trkpt>
      <trkpt lat="45.57612" lon="6.06567">
        <ele>1160</ele>
        <time>2018-09-05T12:49:16Z</time>
      </trkpt>
      <trkpt lat="45.57614" lon="6.06573">
        <ele>1160</ele>
        <time>2018-09-05T12:49:20Z</time>
      </trkpt>
      <trkpt lat="45.57619" lon="6.06577">
        <ele>1160</ele>
        <time>2018-09-05T12:49:24Z</time>
      </trkpt>
      <trkpt lat="45.57626" lon="6.06587">
        <ele>1160</ele>
        <time>2018-09-05T12:49:33Z</time>
      </trkpt>
      <trkpt lat="45.57633" lon="6.06589">
        <ele>1159</ele>
        <time>2018-09-05T12:49:43Z</time>
      </trkpt>
      <trkpt lat="45.57644" lon="6.06582">
        <ele>1159</ele>
        <time>2018-09-05T12:49:55Z</time>
      </trkpt>
      <trkpt lat="45.57648" lon="6.06578">
        <ele>1157</ele>
        <time>2018-09-05T12:50:00Z</time>
      </trkpt>
      <trkpt lat="45.57665" lon="6.06576">
        <ele>1155</ele>
        <time>2018-09-05T12:50:13Z</time>
      </trkpt>
      <trkpt lat="45.57675" lon="6.0658">
        <ele>1155</ele>
        <time>2018-09-05T12:50:20Z</time>
      </trkpt>
      <trkpt lat="45.57685" lon="6.06579">
        <ele>1155</ele>
        <time>2018-09-05T12:50:28Z</time>
      </trkpt>
      <trkpt lat="45.57694" lon="6.06577">
        <ele>1154</ele>
        <time>2018-09-05T12:50:36Z</time>
      </trkpt>
      <trkpt lat="45.57714" lon="6.06579">
        <ele>1153</ele>
        <time>2018-09-05T12:50:55Z</time>
      </trkpt>
      <trkpt lat="45.57726" lon="6.06582">
        <ele>1152</ele>
        <time>2018-09-05T12:51:05Z</time>
      </trkpt>
      <trkpt lat="45.57731" lon="6.06585">
        <ele>1152</ele>
        <time>2018-09-05T12:51:09Z</time>
      </trkpt>
      <trkpt lat="45.57744" lon="6.06594">
        <ele>1151</ele>
        <time>2018-09-05T12:51:21Z</time>
      </trkpt>
      <trkpt lat="45.57753" lon="6.06599">
        <ele>1148</ele>
        <time>2018-09-05T12:51:35Z</time>
      </trkpt>
      <trkpt lat="45.57769" lon="6.06597">
        <ele>1144</ele>
        <time>2018-09-05T12:51:51Z</time>
      </trkpt>
      <trkpt lat="45.57776" lon="6.066">
        <ele>1142</ele>
        <time>2018-09-05T12:52:02Z</time>
      </trkpt>
      <trkpt lat="45.57793" lon="6.06601">
        <ele>1137</ele>
        <time>2018-09-05T12:52:30Z</time>
      </trkpt>
      <trkpt lat="45.5782" lon="6.06593">
        <ele>1130</ele>
        <time>2018-09-05T12:53:06Z</time>
      </trkpt>
      <trkpt lat="45.5785" lon="6.06582">
        <ele>1122</ele>
        <time>2018-09-05T12:53:44Z</time>
      </trkpt>
      <trkpt lat="45.57869" lon="6.06572">
        <ele>1119</ele>
        <time>2018-09-05T12:54:04Z</time>
      </trkpt>
      <trkpt lat="45.57892" lon="6.06556">
        <ele>1116</ele>
        <time>2018-09-05T12:54:25Z</time>
      </trkpt>
      <trkpt lat="45.57903" lon="6.06552">
        <ele>1115</ele>
        <time>2018-09-05T12:54:35Z</time>
      </trkpt>
      <trkpt lat="45.57916" lon="6.06542">
        <ele>1114</ele>
        <time>2018-09-05T12:54:46Z</time>
      </trkpt>
      <trkpt lat="45.5792" lon="6.06539">
        <ele>1114</ele>
        <time>2018-09-05T12:54:49Z</time>
      </trkpt>
      <trkpt lat="45.57929" lon="6.06531">
        <ele>1114</ele>
        <time>2018-09-05T12:54:57Z</time>
      </trkpt>
      <trkpt lat="45.57939" lon="6.06526">
        <ele>1113</ele>
        <time>2018-09-05T12:55:06Z</time>
      </trkpt>
      <trkpt lat="45.57943" lon="6.06525">
        <ele>1113</ele>
        <time>2018-09-05T12:55:09Z</time>
      </trkpt>
      <trkpt lat="45.57948" lon="6.06522">
        <ele>1113</ele>
        <time>2018-09-05T12:55:13Z</time>
      </trkpt>
      <trkpt lat="45.57953" lon="6.06517">
        <ele>1113</ele>
        <time>2018-09-05T12:55:17Z</time>
      </trkpt>
      <trkpt lat="45.57957" lon="6.06511">
        <ele>1112</ele>
        <time>2018-09-05T12:55:21Z</time>
      </trkpt>
      <trkpt lat="45.57959" lon="6.06505">
        <ele>1112</ele>
        <time>2018-09-05T12:55:26Z</time>
      </trkpt>
      <trkpt lat="45.57971" lon="6.06493">
        <ele>1110</ele>
        <time>2018-09-05T12:55:38Z</time>
      </trkpt>
      <trkpt lat="45.57976" lon="6.06493">
        <ele>1109</ele>
        <time>2018-09-05T12:55:42Z</time>
      </trkpt>
      <trkpt lat="45.57981" lon="6.06497">
        <ele>1108</ele>
        <time>2018-09-05T12:55:46Z</time>
      </trkpt>
      <trkpt lat="45.57988" lon="6.06506">
        <ele>1107</ele>
        <time>2018-09-05T12:55:52Z</time>
      </trkpt>
      <trkpt lat="45.57993" lon="6.0652">
        <ele>1106</ele>
        <time>2018-09-05T12:56:00Z</time>
      </trkpt>
      <trkpt lat="45.57994" lon="6.06526">
        <ele>1106</ele>
        <time>2018-09-05T12:56:04Z</time>
      </trkpt>
      <trkpt lat="45.57997" lon="6.0654">
        <ele>1104</ele>
        <time>2018-09-05T12:56:14Z</time>
      </trkpt>
      <trkpt lat="45.58005" lon="6.0656">
        <ele>1101</ele>
        <time>2018-09-05T12:56:31Z</time>
      </trkpt>
      <trkpt lat="45.58016" lon="6.06566">
        <ele>1099</ele>
        <time>2018-09-05T12:56:42Z</time>
      </trkpt>
      <trkpt lat="45.58022" lon="6.06566">
        <ele>1097</ele>
        <time>2018-09-05T12:56:50Z</time>
      </trkpt>
      <trkpt lat="45.58026" lon="6.06562">
        <ele>1096</ele>
        <time>2018-09-05T12:56:56Z</time>
      </trkpt>
      <trkpt lat="45.58032" lon="6.0655">
        <ele>1094</ele>
        <time>2018-09-05T12:57:06Z</time>
      </trkpt>
      <trkpt lat="45.58031" lon="6.06543">
        <ele>1094</ele>
        <time>2018-09-05T12:57:10Z</time>
      </trkpt>
      <trkpt lat="45.58034" lon="6.0653">
        <ele>1092</ele>
        <time>2018-09-05T12:57:18Z</time>
      </trkpt>
      <trkpt lat="45.58039" lon="6.06518">
        <ele>1090</ele>
        <time>2018-09-05T12:57:28Z</time>
      </trkpt>
      <trkpt lat="45.58024" lon="6.06468">
        <ele>1083</ele>
        <time>2018-09-05T12:58:02Z</time>
      </trkpt>
      <trkpt lat="45.58022" lon="6.06462">
        <ele>1083</ele>
        <time>2018-09-05T12:58:06Z</time>
      </trkpt>
      <trkpt lat="45.58018" lon="6.06416">
        <ele>1078</ele>
        <time>2018-09-05T12:58:37Z</time>
      </trkpt>
      <trkpt lat="45.58018" lon="6.0641">
        <ele>1078</ele>
        <time>2018-09-05T12:58:42Z</time>
      </trkpt>
      <trkpt lat="45.58022" lon="6.06405">
        <ele>1077</ele>
        <time>2018-09-05T12:58:47Z</time>
      </trkpt>
      <trkpt lat="45.58029" lon="6.06403">
        <ele>1076</ele>
        <time>2018-09-05T12:58:56Z</time>
      </trkpt>
      <trkpt lat="45.58041" lon="6.06392">
        <ele>1073</ele>
        <time>2018-09-05T12:59:11Z</time>
      </trkpt>
      <trkpt lat="45.58044" lon="6.06386">
        <ele>1073</ele>
        <time>2018-09-05T12:59:16Z</time>
      </trkpt>
      <trkpt lat="45.58047" lon="6.06379">
        <ele>1072</ele>
        <time>2018-09-05T12:59:21Z</time>
      </trkpt>
      <trkpt lat="45.58061" lon="6.06368">
        <ele>1070</ele>
        <time>2018-09-05T12:59:34Z</time>
      </trkpt>
      <trkpt lat="45.58081" lon="6.06357">
        <ele>1067</ele>
        <time>2018-09-05T12:59:51Z</time>
      </trkpt>
      <trkpt lat="45.58097" lon="6.06332">
        <ele>1066</ele>
        <time>2018-09-05T13:00:11Z</time>
      </trkpt>
      <trkpt lat="45.581" lon="6.06325">
        <ele>1066</ele>
        <time>2018-09-05T13:00:15Z</time>
      </trkpt>
      <trkpt lat="45.58112" lon="6.06312">
        <ele>1065</ele>
        <time>2018-09-05T13:00:28Z</time>
      </trkpt>
      <trkpt lat="45.58117" lon="6.06311">
        <ele>1065</ele>
        <time>2018-09-05T13:00:32Z</time>
      </trkpt>
      <trkpt lat="45.58126" lon="6.06309">
        <ele>1064</ele>
        <time>2018-09-05T13:00:39Z</time>
      </trkpt>
      <trkpt lat="45.58131" lon="6.06307">
        <ele>1063</ele>
        <time>2018-09-05T13:00:44Z</time>
      </trkpt>
      <trkpt lat="45.58136" lon="6.06308">
        <ele>1062</ele>
        <time>2018-09-05T13:00:49Z</time>
      </trkpt>
      <trkpt lat="45.58141" lon="6.06311">
        <ele>1061</ele>
        <time>2018-09-05T13:00:52Z</time>
      </trkpt>
      <trkpt lat="45.58146" lon="6.0631">
        <ele>1060</ele>
        <time>2018-09-05T13:00:56Z</time>
      </trkpt>
      <trkpt lat="45.58157" lon="6.06315">
        <ele>1059</ele>
        <time>2018-09-05T13:01:06Z</time>
      </trkpt>
      <trkpt lat="45.58161" lon="6.06315">
        <ele>1058</ele>
        <time>2018-09-05T13:01:11Z</time>
      </trkpt>
      <trkpt lat="45.58167" lon="6.06308">
        <ele>1057</ele>
        <time>2018-09-05T13:01:19Z</time>
      </trkpt>
      <trkpt lat="45.58183" lon="6.06312">
        <ele>1056</ele>
        <time>2018-09-05T13:01:31Z</time>
      </trkpt>
      <trkpt lat="45.58199" lon="6.06308">
        <ele>1054</ele>
        <time>2018-09-05T13:01:44Z</time>
      </trkpt>
      <trkpt lat="45.58203" lon="6.06298">
        <ele>1052</ele>
        <time>2018-09-05T13:01:52Z</time>
      </trkpt>
      <trkpt lat="45.58204" lon="6.06289">
        <ele>1052</ele>
        <time>2018-09-05T13:02:00Z</time>
      </trkpt>
      <trkpt lat="45.58201" lon="6.06283">
        <ele>1052</ele>
        <time>2018-09-05T13:02:05Z</time>
      </trkpt>
      <trkpt lat="45.58196" lon="6.06281">
        <ele>1052</ele>
        <time>2018-09-05T13:02:10Z</time>
      </trkpt>
      <trkpt lat="45.58191" lon="6.06279">
        <ele>1052</ele>
        <time>2018-09-05T13:02:14Z</time>
      </trkpt>
      <trkpt lat="45.58187" lon="6.06277">
        <ele>1052</ele>
        <time>2018-09-05T13:02:19Z</time>
      </trkpt>
      <trkpt lat="45.58172" lon="6.0627">
        <ele>1053</ele>
        <time>2018-09-05T13:02:38Z</time>
      </trkpt>
      <trkpt lat="45.58154" lon="6.06256">
        <ele>1053</ele>
        <time>2018-09-05T13:02:59Z</time>
      </trkpt>
      <trkpt lat="45.58149" lon="6.06254">
        <ele>1054</ele>
        <time>2018-09-05T13:03:03Z</time>
      </trkpt>
      <trkpt lat="45.58142" lon="6.06249">
        <ele>1055</ele>
        <time>2018-09-05T13:03:12Z</time>
      </trkpt>
      <trkpt lat="45.58123" lon="6.06225">
        <ele>1057</ele>
        <time>2018-09-05T13:03:43Z</time>
      </trkpt>
      <trkpt lat="45.58119" lon="6.06221">
        <ele>1058</ele>
        <time>2018-09-05T13:03:49Z</time>
      </trkpt>
      <trkpt lat="45.58092" lon="6.06207">
        <ele>1061</ele>
        <time>2018-09-05T13:04:25Z</time>
      </trkpt>
      <trkpt lat="45.58088" lon="6.06205">
        <ele>1061</ele>
        <time>2018-09-05T13:04:30Z</time>
      </trkpt>
      <trkpt lat="45.58081" lon="6.06198">
        <ele>1063</ele>
        <time>2018-09-05T13:04:40Z</time>
      </trkpt>
    </trkseg>
  </trk>
</gpx>